<?xml version="1.0" encoding="UTF-8" standalone="no" ?>
<gpx xmlns="http://www.topografix.com/GPX/1/1" xmlns:xsi="http://www.w3.org/2001/XMLSchema-instance" xsi:schemaLocation="http://www.topografix.com/GPX/1/1 http://www.topografix.com/GPX/1/1/gpx.xsd" version="1.1" creator="VisuGPX - https://www.visugpx.com">
  <metadata>
    <name>FontaineBleau </name>
    <desc><![CDATA[Deux parcours bien sympas et sportifs.
Génial en hivers]]></desc>
  </metadata>
  <wpt lat="48.40847" lon="2.63913">
    <ele>132</ele>
    <name><![CDATA[Croix de Franchard]]></name>
    <link href="C:/Users/lfuggetta/AppData/Roaming/Garmin/BaseCamp/Database/4.4/Adventures/d385b613-030f-4e69-a85b-1e5e04da7607.adb/Photos/Croix%20de%20Franchard.jpg"></link>
    <type><![CDATA[photo]]></type>
  </wpt>
  <wpt lat="48.40872" lon="2.63897">
    <ele>132.7578125</ele>
    <name><![CDATA[D301 Rte Ronde Croix de Franchard]]></name>
    <type><![CDATA[user]]></type>
  </wpt>
  <wpt lat="48.39412" lon="2.57537">
    <ele>70</ele>
    <name><![CDATA[Lac de sable]]></name>
    <link href="C:/Users/lfuggetta/AppData/Roaming/Garmin/BaseCamp/Database/4.4/Adventures/d385b613-030f-4e69-a85b-1e5e04da7607.adb/Photos/Lac%20de%20sable.jpg"></link>
    <type><![CDATA[photo]]></type>
  </wpt>
  <wpt lat="48.43623" lon="2.63824">
    <ele>130.9</ele>
    <name><![CDATA[S'il neige]]></name>
    <link href="C:/Users/lfuggetta/AppData/Roaming/Garmin/BaseCamp/Database/4.4/Adventures/d385b613-030f-4e69-a85b-1e5e04da7607.adb/Photos/images%202.jpg"></link>
    <type><![CDATA[photo]]></type>
  </wpt>
  <wpt lat="48.39079" lon="2.5964">
    <ele>122.2</ele>
    <name><![CDATA[Tunel]]></name>
    <link href="C:/Users/lfuggetta/AppData/Roaming/Garmin/BaseCamp/Database/4.4/Adventures/d385b613-030f-4e69-a85b-1e5e04da7607.adb/Photos/images.jpg"></link>
    <type><![CDATA[photo]]></type>
  </wpt>
  <trk>
    <name><![CDATA[FB Circuit 1]]></name>
    <trkseg>
      <trkpt lat="48.40858" lon="2.63849">
        <ele>154.86</ele>
        <time>2014-01-04T11:17:12Z</time>
      </trkpt>
      <trkpt lat="48.40855" lon="2.63779">
        <ele>154.67</ele>
        <time>2014-01-04T11:17:25Z</time>
      </trkpt>
      <trkpt lat="48.40862" lon="2.63665">
        <ele>155.62</ele>
        <time>2014-01-04T11:17:46Z</time>
      </trkpt>
      <trkpt lat="48.40888" lon="2.63577">
        <ele>155.84</ele>
        <time>2014-01-04T11:18:06Z</time>
      </trkpt>
      <trkpt lat="48.40894" lon="2.63558">
        <ele>165.68</ele>
        <time>2014-01-04T12:08:27Z</time>
      </trkpt>
      <trkpt lat="48.40902" lon="2.63494">
        <ele>165.39</ele>
        <time>2014-01-04T12:08:48Z</time>
      </trkpt>
      <trkpt lat="48.40885" lon="2.63425">
        <ele>164.87</ele>
        <time>2014-01-04T12:09:09Z</time>
      </trkpt>
      <trkpt lat="48.40869" lon="2.63337">
        <ele>165.36</ele>
        <time>2014-01-04T12:09:28Z</time>
      </trkpt>
      <trkpt lat="48.40868" lon="2.63243">
        <ele>163.69</ele>
        <time>2014-01-04T12:09:48Z</time>
      </trkpt>
      <trkpt lat="48.40882" lon="2.63223">
        <ele>163.71</ele>
        <time>2014-01-04T12:09:54Z</time>
      </trkpt>
      <trkpt lat="48.40908" lon="2.63202">
        <ele>163.89</ele>
        <time>2014-01-04T12:10:02Z</time>
      </trkpt>
      <trkpt lat="48.40962" lon="2.63139">
        <ele>162.27</ele>
        <time>2014-01-04T12:10:23Z</time>
      </trkpt>
      <trkpt lat="48.41022" lon="2.63061">
        <ele>164.28</ele>
        <time>2014-01-04T12:10:50Z</time>
      </trkpt>
      <trkpt lat="48.41019" lon="2.63039">
        <ele>164.06</ele>
        <time>2014-01-04T12:10:56Z</time>
      </trkpt>
      <trkpt lat="48.40995" lon="2.62925">
        <ele>162.56</ele>
        <time>2014-01-04T12:11:16Z</time>
      </trkpt>
      <trkpt lat="48.40984" lon="2.62868">
        <ele>161.36</ele>
        <time>2014-01-04T12:11:25Z</time>
      </trkpt>
      <trkpt lat="48.40975" lon="2.62807">
        <ele>159.24</ele>
        <time>2014-01-04T12:11:34Z</time>
      </trkpt>
      <trkpt lat="48.40958" lon="2.62683">
        <ele>158.11</ele>
        <time>2014-01-04T12:11:54Z</time>
      </trkpt>
      <trkpt lat="48.40963" lon="2.62619">
        <ele>157.54</ele>
        <time>2014-01-04T12:12:04Z</time>
      </trkpt>
      <trkpt lat="48.40971" lon="2.62543">
        <ele>156.37</ele>
        <time>2014-01-04T12:12:16Z</time>
      </trkpt>
      <trkpt lat="48.41004" lon="2.62462">
        <ele>152.3</ele>
        <time>2014-01-04T12:12:29Z</time>
      </trkpt>
      <trkpt lat="48.41026" lon="2.62412">
        <ele>151.06</ele>
        <time>2014-01-04T12:12:36Z</time>
      </trkpt>
      <trkpt lat="48.41053" lon="2.62351">
        <ele>149.55</ele>
        <time>2014-01-04T12:12:44Z</time>
      </trkpt>
      <trkpt lat="48.41056" lon="2.6218">
        <ele>141.88</ele>
        <time>2014-01-04T12:13:01Z</time>
      </trkpt>
      <trkpt lat="48.41055" lon="2.62169">
        <ele>140.7</ele>
        <time>2014-01-04T12:13:02Z</time>
      </trkpt>
      <trkpt lat="48.41055" lon="2.62145">
        <ele>140.03</ele>
        <time>2014-01-04T12:13:04Z</time>
      </trkpt>
      <trkpt lat="48.41059" lon="2.62083">
        <ele>136.57</ele>
        <time>2014-01-04T12:13:09Z</time>
      </trkpt>
      <trkpt lat="48.41072" lon="2.61984">
        <ele>132.51</ele>
        <time>2014-01-04T12:13:17Z</time>
      </trkpt>
      <trkpt lat="48.41091" lon="2.61848">
        <ele>128.6</ele>
        <time>2014-01-04T12:13:28Z</time>
      </trkpt>
      <trkpt lat="48.4113" lon="2.61668">
        <ele>125.15</ele>
        <time>2014-01-04T12:13:47Z</time>
      </trkpt>
      <trkpt lat="48.41135" lon="2.6165">
        <ele>126.14</ele>
        <time>2014-01-04T12:13:49Z</time>
      </trkpt>
      <trkpt lat="48.41142" lon="2.6161">
        <ele>125.11</ele>
        <time>2014-01-04T12:13:54Z</time>
      </trkpt>
      <trkpt lat="48.41172" lon="2.61444">
        <ele>122.55</ele>
        <time>2014-01-04T12:14:21Z</time>
      </trkpt>
      <trkpt lat="48.41212" lon="2.61245">
        <ele>120.47</ele>
        <time>2014-01-04T12:14:56Z</time>
      </trkpt>
      <trkpt lat="48.41245" lon="2.61071">
        <ele>119.38</ele>
        <time>2014-01-04T12:15:26Z</time>
      </trkpt>
      <trkpt lat="48.41262" lon="2.6098">
        <ele>118.66</ele>
        <time>2014-01-04T12:15:42Z</time>
      </trkpt>
      <trkpt lat="48.41296" lon="2.60884">
        <ele>119.04</ele>
        <time>2014-01-04T12:16:02Z</time>
      </trkpt>
      <trkpt lat="48.41321" lon="2.60873">
        <ele>118.67</ele>
        <time>2014-01-04T12:16:09Z</time>
      </trkpt>
      <trkpt lat="48.4148" lon="2.6081">
        <ele>118.92</ele>
        <time>2014-01-04T12:16:50Z</time>
      </trkpt>
      <trkpt lat="48.41606" lon="2.60759">
        <ele>118.88</ele>
        <time>2014-01-04T12:17:19Z</time>
      </trkpt>
      <trkpt lat="48.41644" lon="2.60708">
        <ele>118.67</ele>
        <time>2014-01-04T12:17:32Z</time>
      </trkpt>
      <trkpt lat="48.41667" lon="2.60669">
        <ele>118.67</ele>
        <time>2014-01-04T12:17:41Z</time>
      </trkpt>
      <trkpt lat="48.4167" lon="2.60576">
        <ele>117.75</ele>
        <time>2014-01-04T12:17:56Z</time>
      </trkpt>
      <trkpt lat="48.41662" lon="2.60509">
        <ele>117.8</ele>
        <time>2014-01-04T12:18:05Z</time>
      </trkpt>
      <trkpt lat="48.41627" lon="2.60178">
        <ele>114.86</ele>
        <time>2014-01-04T12:18:47Z</time>
      </trkpt>
      <trkpt lat="48.41606" lon="2.60152">
        <ele>114.86</ele>
        <time>2014-01-04T12:18:56Z</time>
      </trkpt>
      <trkpt lat="48.41587" lon="2.60121">
        <ele>115.03</ele>
        <time>2014-01-04T12:19:04Z</time>
      </trkpt>
      <trkpt lat="48.41492" lon="2.59966">
        <ele>114.31</ele>
        <time>2014-01-04T12:19:42Z</time>
      </trkpt>
      <trkpt lat="48.41423" lon="2.59914">
        <ele>113.36</ele>
        <time>2014-01-04T12:20:05Z</time>
      </trkpt>
      <trkpt lat="48.41359" lon="2.599">
        <ele>113.88</ele>
        <time>2014-01-04T12:20:20Z</time>
      </trkpt>
      <trkpt lat="48.41199" lon="2.59866">
        <ele>114.14</ele>
        <time>2014-01-04T12:20:56Z</time>
      </trkpt>
      <trkpt lat="48.41122" lon="2.59848">
        <ele>113.52</ele>
        <time>2014-01-04T12:21:15Z</time>
      </trkpt>
      <trkpt lat="48.41097" lon="2.59817">
        <ele>112.57</ele>
        <time>2014-01-04T12:22:15Z</time>
      </trkpt>
      <trkpt lat="48.41063" lon="2.59749">
        <ele>113.76</ele>
        <time>2014-01-04T12:22:33Z</time>
      </trkpt>
      <trkpt lat="48.4103" lon="2.59687">
        <ele>112.91</ele>
        <time>2014-01-04T12:22:48Z</time>
      </trkpt>
      <trkpt lat="48.40965" lon="2.59581">
        <ele>114.11</ele>
        <time>2014-01-04T12:23:13Z</time>
      </trkpt>
      <trkpt lat="48.40963" lon="2.59508">
        <ele>113.61</ele>
        <time>2014-01-04T12:23:26Z</time>
      </trkpt>
      <trkpt lat="48.4098" lon="2.59279">
        <ele>114.5</ele>
        <time>2014-01-04T12:24:05Z</time>
      </trkpt>
      <trkpt lat="48.4098" lon="2.59141">
        <ele>113.57</ele>
        <time>2014-01-04T12:24:29Z</time>
      </trkpt>
      <trkpt lat="48.40979" lon="2.59128">
        <ele>112.82</ele>
        <time>2014-01-04T12:24:31Z</time>
      </trkpt>
      <trkpt lat="48.40977" lon="2.59094">
        <ele>113.44</ele>
        <time>2014-01-04T12:24:37Z</time>
      </trkpt>
      <trkpt lat="48.40986" lon="2.58989">
        <ele>113.57</ele>
        <time>2014-01-04T12:24:52Z</time>
      </trkpt>
      <trkpt lat="48.41" lon="2.58881">
        <ele>113.59</ele>
        <time>2014-01-04T12:25:08Z</time>
      </trkpt>
      <trkpt lat="48.41018" lon="2.58776">
        <ele>113.79</ele>
        <time>2014-01-04T12:25:23Z</time>
      </trkpt>
      <trkpt lat="48.41018" lon="2.58663">
        <ele>112.99</ele>
        <time>2014-01-04T12:25:39Z</time>
      </trkpt>
      <trkpt lat="48.41022" lon="2.5862">
        <ele>113.56</ele>
        <time>2014-01-04T12:25:46Z</time>
      </trkpt>
      <trkpt lat="48.41042" lon="2.58501">
        <ele>111.77</ele>
        <time>2014-01-04T12:26:06Z</time>
      </trkpt>
      <trkpt lat="48.41038" lon="2.58363">
        <ele>111.91</ele>
        <time>2014-01-04T12:26:28Z</time>
      </trkpt>
      <trkpt lat="48.41053" lon="2.58276">
        <ele>111.74</ele>
        <time>2014-01-04T12:26:42Z</time>
      </trkpt>
      <trkpt lat="48.41032" lon="2.58141">
        <ele>111.44</ele>
        <time>2014-01-04T12:27:04Z</time>
      </trkpt>
      <trkpt lat="48.41032" lon="2.581">
        <ele>112.33</ele>
        <time>2014-01-04T12:27:10Z</time>
      </trkpt>
      <trkpt lat="48.41018" lon="2.57987">
        <ele>112.37</ele>
        <time>2014-01-04T12:27:26Z</time>
      </trkpt>
      <trkpt lat="48.41012" lon="2.57948">
        <ele>112.15</ele>
        <time>2014-01-04T12:27:32Z</time>
      </trkpt>
      <trkpt lat="48.40985" lon="2.57936">
        <ele>112.41</ele>
        <time>2014-01-04T12:27:43Z</time>
      </trkpt>
      <trkpt lat="48.40964" lon="2.57979">
        <ele>115.05</ele>
        <time>2014-01-04T12:28:00Z</time>
      </trkpt>
      <trkpt lat="48.40962" lon="2.57984">
        <ele>115.53</ele>
        <time>2014-01-04T12:28:02Z</time>
      </trkpt>
      <trkpt lat="48.40953" lon="2.58002">
        <ele>115.74</ele>
        <time>2014-01-04T12:28:10Z</time>
      </trkpt>
      <trkpt lat="48.40913" lon="2.58075">
        <ele>120.03</ele>
        <time>2014-01-04T12:28:37Z</time>
      </trkpt>
      <trkpt lat="48.40883" lon="2.5817">
        <ele>121.73</ele>
        <time>2014-01-04T12:29:06Z</time>
      </trkpt>
      <trkpt lat="48.40872" lon="2.58232">
        <ele>124.69</ele>
        <time>2014-01-04T12:29:27Z</time>
      </trkpt>
      <trkpt lat="48.40876" lon="2.58275">
        <ele>128.88</ele>
        <time>2014-01-04T12:29:43Z</time>
      </trkpt>
      <trkpt lat="48.40878" lon="2.5831">
        <ele>132.05</ele>
        <time>2014-01-04T12:29:56Z</time>
      </trkpt>
      <trkpt lat="48.40888" lon="2.58318">
        <ele>132.17</ele>
        <time>2014-01-04T12:30:03Z</time>
      </trkpt>
      <trkpt lat="48.40927" lon="2.5834">
        <ele>130.97</ele>
        <time>2014-01-04T12:30:20Z</time>
      </trkpt>
      <trkpt lat="48.40935" lon="2.58345">
        <ele>129.61</ele>
        <time>2014-01-04T12:30:48Z</time>
      </trkpt>
      <trkpt lat="48.40927" lon="2.58353">
        <ele>131.26</ele>
        <time>2014-01-04T12:31:12Z</time>
      </trkpt>
      <trkpt lat="48.40931" lon="2.58391">
        <ele>131.43</ele>
        <time>2014-01-04T12:31:24Z</time>
      </trkpt>
      <trkpt lat="48.40929" lon="2.58395">
        <ele>131.76</ele>
        <time>2014-01-04T12:31:48Z</time>
      </trkpt>
      <trkpt lat="48.40928" lon="2.58395">
        <ele>131.98</ele>
        <time>2014-01-04T12:32:15Z</time>
      </trkpt>
      <trkpt lat="48.40927" lon="2.58424">
        <ele>130.61</ele>
        <time>2014-01-04T12:32:31Z</time>
      </trkpt>
      <trkpt lat="48.40926" lon="2.58428">
        <ele>130.44</ele>
        <time>2014-01-04T12:32:35Z</time>
      </trkpt>
      <trkpt lat="48.40918" lon="2.58464">
        <ele>126.83</ele>
        <time>2014-01-04T12:32:44Z</time>
      </trkpt>
      <trkpt lat="48.40915" lon="2.58478">
        <ele>126.11</ele>
        <time>2014-01-04T12:32:46Z</time>
      </trkpt>
      <trkpt lat="48.40905" lon="2.58516">
        <ele>124.76</ele>
        <time>2014-01-04T12:32:54Z</time>
      </trkpt>
      <trkpt lat="48.40884" lon="2.58528">
        <ele>126.16</ele>
        <time>2014-01-04T12:33:07Z</time>
      </trkpt>
      <trkpt lat="48.4086" lon="2.58537">
        <ele>128.2</ele>
        <time>2014-01-04T12:33:20Z</time>
      </trkpt>
      <trkpt lat="48.40834" lon="2.58591">
        <ele>130.72</ele>
        <time>2014-01-04T12:33:43Z</time>
      </trkpt>
      <trkpt lat="48.4079" lon="2.58637">
        <ele>134.05</ele>
        <time>2014-01-04T12:34:08Z</time>
      </trkpt>
      <trkpt lat="48.40759" lon="2.58682">
        <ele>138.16</ele>
        <time>2014-01-04T12:34:29Z</time>
      </trkpt>
      <trkpt lat="48.40732" lon="2.58732">
        <ele>138.16</ele>
        <time>2014-01-04T12:34:49Z</time>
      </trkpt>
      <trkpt lat="48.40743" lon="2.5877">
        <ele>142.95</ele>
        <time>2014-01-04T12:35:06Z</time>
      </trkpt>
      <trkpt lat="48.40746" lon="2.58771">
        <ele>144.22</ele>
        <time>2014-01-04T12:35:09Z</time>
      </trkpt>
      <trkpt lat="48.40754" lon="2.58788">
        <ele>148.54</ele>
        <time>2014-01-04T12:35:28Z</time>
      </trkpt>
      <trkpt lat="48.40753" lon="2.58796">
        <ele>149.58</ele>
        <time>2014-01-04T12:35:44Z</time>
      </trkpt>
      <trkpt lat="48.40729" lon="2.58812">
        <ele>151.73</ele>
        <time>2014-01-04T12:35:58Z</time>
      </trkpt>
      <trkpt lat="48.40707" lon="2.58837">
        <ele>155.9</ele>
        <time>2014-01-04T12:36:16Z</time>
      </trkpt>
      <trkpt lat="48.40707" lon="2.58848">
        <ele>156.9</ele>
        <time>2014-01-04T12:36:21Z</time>
      </trkpt>
      <trkpt lat="48.40706" lon="2.58867">
        <ele>159.17</ele>
        <time>2014-01-04T12:36:30Z</time>
      </trkpt>
      <trkpt lat="48.40708" lon="2.58881">
        <ele>161.45</ele>
        <time>2014-01-04T12:36:36Z</time>
      </trkpt>
      <trkpt lat="48.40709" lon="2.5889">
        <ele>162.4</ele>
        <time>2014-01-04T12:36:40Z</time>
      </trkpt>
      <trkpt lat="48.40709" lon="2.58921">
        <ele>163.89</ele>
        <time>2014-01-04T12:36:52Z</time>
      </trkpt>
      <trkpt lat="48.40708" lon="2.58953">
        <ele>164.76</ele>
        <time>2014-01-04T12:37:19Z</time>
      </trkpt>
      <trkpt lat="48.40719" lon="2.58964">
        <ele>163.99</ele>
        <time>2014-01-04T12:38:22Z</time>
      </trkpt>
      <trkpt lat="48.40713" lon="2.58958">
        <ele>165.69</ele>
        <time>2014-01-04T12:39:09Z</time>
      </trkpt>
      <trkpt lat="48.40724" lon="2.58965">
        <ele>164.39</ele>
        <time>2014-01-04T12:39:57Z</time>
      </trkpt>
      <trkpt lat="48.40727" lon="2.58973">
        <ele>163.5</ele>
        <time>2014-01-04T12:40:17Z</time>
      </trkpt>
      <trkpt lat="48.40734" lon="2.58981">
        <ele>160.25</ele>
        <time>2014-01-04T12:40:24Z</time>
      </trkpt>
      <trkpt lat="48.40741" lon="2.58997">
        <ele>154.5</ele>
        <time>2014-01-04T12:40:32Z</time>
      </trkpt>
      <trkpt lat="48.40742" lon="2.59012">
        <ele>150.38</ele>
        <time>2014-01-04T12:40:37Z</time>
      </trkpt>
      <trkpt lat="48.40743" lon="2.59019">
        <ele>149.07</ele>
        <time>2014-01-04T12:40:54Z</time>
      </trkpt>
      <trkpt lat="48.40748" lon="2.59028">
        <ele>147.41</ele>
        <time>2014-01-04T12:41:26Z</time>
      </trkpt>
      <trkpt lat="48.4076" lon="2.59059">
        <ele>145.09</ele>
        <time>2014-01-04T12:41:39Z</time>
      </trkpt>
      <trkpt lat="48.40756" lon="2.59064">
        <ele>145.03</ele>
        <time>2014-01-04T12:41:51Z</time>
      </trkpt>
      <trkpt lat="48.40754" lon="2.59064">
        <ele>144.65</ele>
        <time>2014-01-04T12:42:53Z</time>
      </trkpt>
      <trkpt lat="48.40761" lon="2.59099">
        <ele>146.11</ele>
        <time>2014-01-04T12:43:36Z</time>
      </trkpt>
      <trkpt lat="48.40739" lon="2.59109">
        <ele>150.93</ele>
        <time>2014-01-04T12:43:52Z</time>
      </trkpt>
      <trkpt lat="48.40728" lon="2.59134">
        <ele>156.07</ele>
        <time>2014-01-04T12:44:08Z</time>
      </trkpt>
      <trkpt lat="48.4072" lon="2.59142">
        <ele>159.51</ele>
        <time>2014-01-04T12:44:28Z</time>
      </trkpt>
      <trkpt lat="48.40706" lon="2.59153">
        <ele>161.7</ele>
        <time>2014-01-04T12:44:54Z</time>
      </trkpt>
      <trkpt lat="48.40703" lon="2.59159">
        <ele>161.72</ele>
        <time>2014-01-04T12:45:24Z</time>
      </trkpt>
      <trkpt lat="48.40673" lon="2.59183">
        <ele>160.67</ele>
        <time>2014-01-04T12:45:38Z</time>
      </trkpt>
      <trkpt lat="48.40641" lon="2.59195">
        <ele>157.62</ele>
        <time>2014-01-04T12:45:48Z</time>
      </trkpt>
      <trkpt lat="48.40626" lon="2.59185">
        <ele>155.51</ele>
        <time>2014-01-04T12:45:53Z</time>
      </trkpt>
      <trkpt lat="48.40579" lon="2.59177">
        <ele>153.23</ele>
        <time>2014-01-04T12:46:09Z</time>
      </trkpt>
      <trkpt lat="48.40575" lon="2.59179">
        <ele>152.74</ele>
        <time>2014-01-04T12:46:10Z</time>
      </trkpt>
      <trkpt lat="48.40557" lon="2.5919">
        <ele>149.68</ele>
        <time>2014-01-04T12:46:15Z</time>
      </trkpt>
      <trkpt lat="48.40553" lon="2.59186">
        <ele>149.58</ele>
        <time>2014-01-04T12:46:16Z</time>
      </trkpt>
      <trkpt lat="48.40539" lon="2.59183">
        <ele>146.58</ele>
        <time>2014-01-04T12:46:21Z</time>
      </trkpt>
      <trkpt lat="48.40524" lon="2.5919">
        <ele>142.39</ele>
        <time>2014-01-04T12:46:29Z</time>
      </trkpt>
      <trkpt lat="48.40514" lon="2.59186">
        <ele>138.48</ele>
        <time>2014-01-04T12:46:36Z</time>
      </trkpt>
      <trkpt lat="48.40504" lon="2.59182">
        <ele>134.65</ele>
        <time>2014-01-04T12:46:41Z</time>
      </trkpt>
      <trkpt lat="48.40482" lon="2.59207">
        <ele>132.32</ele>
        <time>2014-01-04T12:46:54Z</time>
      </trkpt>
      <trkpt lat="48.4048" lon="2.59217">
        <ele>133.52</ele>
        <time>2014-01-04T12:47:18Z</time>
      </trkpt>
      <trkpt lat="48.40479" lon="2.59216">
        <ele>133.41</ele>
        <time>2014-01-04T12:47:52Z</time>
      </trkpt>
      <trkpt lat="48.40463" lon="2.59201">
        <ele>135.17</ele>
        <time>2014-01-04T12:48:03Z</time>
      </trkpt>
      <trkpt lat="48.40453" lon="2.59188">
        <ele>136.51</ele>
        <time>2014-01-04T12:48:12Z</time>
      </trkpt>
      <trkpt lat="48.40416" lon="2.59174">
        <ele>137.93</ele>
        <time>2014-01-04T12:48:27Z</time>
      </trkpt>
      <trkpt lat="48.4038" lon="2.59159">
        <ele>139.48</ele>
        <time>2014-01-04T12:48:40Z</time>
      </trkpt>
      <trkpt lat="48.40354" lon="2.59179">
        <ele>142.67</ele>
        <time>2014-01-04T12:48:55Z</time>
      </trkpt>
      <trkpt lat="48.40352" lon="2.5918">
        <ele>142.83</ele>
        <time>2014-01-04T12:48:56Z</time>
      </trkpt>
      <trkpt lat="48.40329" lon="2.59194">
        <ele>141.1</ele>
        <time>2014-01-04T12:49:05Z</time>
      </trkpt>
      <trkpt lat="48.40302" lon="2.59256">
        <ele>135.42</ele>
        <time>2014-01-04T12:49:15Z</time>
      </trkpt>
      <trkpt lat="48.40288" lon="2.59274">
        <ele>133.74</ele>
        <time>2014-01-04T12:49:18Z</time>
      </trkpt>
      <trkpt lat="48.40265" lon="2.59299">
        <ele>134.38</ele>
        <time>2014-01-04T12:49:30Z</time>
      </trkpt>
      <trkpt lat="48.40243" lon="2.59315">
        <ele>138.22</ele>
        <time>2014-01-04T12:49:45Z</time>
      </trkpt>
      <trkpt lat="48.4021" lon="2.59328">
        <ele>143.31</ele>
        <time>2014-01-04T12:50:17Z</time>
      </trkpt>
      <trkpt lat="48.40205" lon="2.59335">
        <ele>145.2</ele>
        <time>2014-01-04T12:50:22Z</time>
      </trkpt>
      <trkpt lat="48.4019" lon="2.59353">
        <ele>150.54</ele>
        <time>2014-01-04T12:50:37Z</time>
      </trkpt>
      <trkpt lat="48.40182" lon="2.59359">
        <ele>153.69</ele>
        <time>2014-01-04T12:50:49Z</time>
      </trkpt>
      <trkpt lat="48.40167" lon="2.59368">
        <ele>158.45</ele>
        <time>2014-01-04T12:51:13Z</time>
      </trkpt>
      <trkpt lat="48.40157" lon="2.59369">
        <ele>163.99</ele>
        <time>2014-01-04T12:51:39Z</time>
      </trkpt>
      <trkpt lat="48.40156" lon="2.59363">
        <ele>165.39</ele>
        <time>2014-01-04T12:52:04Z</time>
      </trkpt>
      <trkpt lat="48.40157" lon="2.59357">
        <ele>165.19</ele>
        <time>2014-01-04T12:53:00Z</time>
      </trkpt>
      <trkpt lat="48.40158" lon="2.59354">
        <ele>165.21</ele>
        <time>2014-01-04T12:53:02Z</time>
      </trkpt>
      <trkpt lat="48.40161" lon="2.59333">
        <ele>164.85</ele>
        <time>2014-01-04T12:53:10Z</time>
      </trkpt>
      <trkpt lat="48.40147" lon="2.5929">
        <ele>165.33</ele>
        <time>2014-01-04T12:53:29Z</time>
      </trkpt>
      <trkpt lat="48.40128" lon="2.59241">
        <ele>165.91</ele>
        <time>2014-01-04T12:53:52Z</time>
      </trkpt>
      <trkpt lat="48.40128" lon="2.59239">
        <ele>165.69</ele>
        <time>2014-01-04T12:54:42Z</time>
      </trkpt>
      <trkpt lat="48.40127" lon="2.59239">
        <ele>165.86</ele>
        <time>2014-01-04T12:55:13Z</time>
      </trkpt>
      <trkpt lat="48.40114" lon="2.59241">
        <ele>166.08</ele>
        <time>2014-01-04T12:55:21Z</time>
      </trkpt>
      <trkpt lat="48.40051" lon="2.59254">
        <ele>166.06</ele>
        <time>2014-01-04T12:55:46Z</time>
      </trkpt>
      <trkpt lat="48.40044" lon="2.59248">
        <ele>166.12</ele>
        <time>2014-01-04T12:55:50Z</time>
      </trkpt>
      <trkpt lat="48.40034" lon="2.59258">
        <ele>163.05</ele>
        <time>2014-01-04T12:55:56Z</time>
      </trkpt>
      <trkpt lat="48.40032" lon="2.59261">
        <ele>162.88</ele>
        <time>2014-01-04T12:55:57Z</time>
      </trkpt>
      <trkpt lat="48.40016" lon="2.59254">
        <ele>158.65</ele>
        <time>2014-01-04T12:56:05Z</time>
      </trkpt>
      <trkpt lat="48.39975" lon="2.59219">
        <ele>160.29</ele>
        <time>2014-01-04T12:56:27Z</time>
      </trkpt>
      <trkpt lat="48.39943" lon="2.59228">
        <ele>153.91</ele>
        <time>2014-01-04T12:56:41Z</time>
      </trkpt>
      <trkpt lat="48.39938" lon="2.59222">
        <ele>152.96</ele>
        <time>2014-01-04T12:57:00Z</time>
      </trkpt>
      <trkpt lat="48.39936" lon="2.59212">
        <ele>152.72</ele>
        <time>2014-01-04T12:57:30Z</time>
      </trkpt>
      <trkpt lat="48.39924" lon="2.59152">
        <ele>149.64</ele>
        <time>2014-01-04T12:57:40Z</time>
      </trkpt>
      <trkpt lat="48.39934" lon="2.59098">
        <ele>147.87</ele>
        <time>2014-01-04T12:57:48Z</time>
      </trkpt>
      <trkpt lat="48.39947" lon="2.5905">
        <ele>145.42</ele>
        <time>2014-01-04T12:58:00Z</time>
      </trkpt>
      <trkpt lat="48.39975" lon="2.59027">
        <ele>139.17</ele>
        <time>2014-01-04T12:58:11Z</time>
      </trkpt>
      <trkpt lat="48.39989" lon="2.59006">
        <ele>137.11</ele>
        <time>2014-01-04T12:58:14Z</time>
      </trkpt>
      <trkpt lat="48.40013" lon="2.58969">
        <ele>132.46</ele>
        <time>2014-01-04T12:58:18Z</time>
      </trkpt>
      <trkpt lat="48.40029" lon="2.58939">
        <ele>129.93</ele>
        <time>2014-01-04T12:58:21Z</time>
      </trkpt>
      <trkpt lat="48.40051" lon="2.58845">
        <ele>127.06</ele>
        <time>2014-01-04T12:58:29Z</time>
      </trkpt>
      <trkpt lat="48.4007" lon="2.58801">
        <ele>123.16</ele>
        <time>2014-01-04T12:58:33Z</time>
      </trkpt>
      <trkpt lat="48.40112" lon="2.58743">
        <ele>121.77</ele>
        <time>2014-01-04T12:58:43Z</time>
      </trkpt>
      <trkpt lat="48.40186" lon="2.58754">
        <ele>120.06</ele>
        <time>2014-01-04T12:58:59Z</time>
      </trkpt>
      <trkpt lat="48.40231" lon="2.58766">
        <ele>118.6</ele>
        <time>2014-01-04T12:59:11Z</time>
      </trkpt>
      <trkpt lat="48.40238" lon="2.58718">
        <ele>118.4</ele>
        <time>2014-01-04T12:59:25Z</time>
      </trkpt>
      <trkpt lat="48.4024" lon="2.58675">
        <ele>118.1</ele>
        <time>2014-01-04T12:59:32Z</time>
      </trkpt>
      <trkpt lat="48.40249" lon="2.58586">
        <ele>117.49</ele>
        <time>2014-01-04T12:59:46Z</time>
      </trkpt>
      <trkpt lat="48.40248" lon="2.58506">
        <ele>116.64</ele>
        <time>2014-01-04T13:00:00Z</time>
      </trkpt>
      <trkpt lat="48.40259" lon="2.58374">
        <ele>116.81</ele>
        <time>2014-01-04T13:00:22Z</time>
      </trkpt>
      <trkpt lat="48.4028" lon="2.58224">
        <ele>115.65</ele>
        <time>2014-01-04T13:00:44Z</time>
      </trkpt>
      <trkpt lat="48.40287" lon="2.58181">
        <ele>115.34</ele>
        <time>2014-01-04T13:00:50Z</time>
      </trkpt>
      <trkpt lat="48.40305" lon="2.58061">
        <ele>115.5</ele>
        <time>2014-01-04T13:01:06Z</time>
      </trkpt>
      <trkpt lat="48.40306" lon="2.58023">
        <ele>114.94</ele>
        <time>2014-01-04T13:01:11Z</time>
      </trkpt>
      <trkpt lat="48.40308" lon="2.57965">
        <ele>114.8</ele>
        <time>2014-01-04T13:01:19Z</time>
      </trkpt>
      <trkpt lat="48.40305" lon="2.57928">
        <ele>114.58</ele>
        <time>2014-01-04T13:01:24Z</time>
      </trkpt>
      <trkpt lat="48.403" lon="2.57858">
        <ele>113.81</ele>
        <time>2014-01-04T13:01:34Z</time>
      </trkpt>
      <trkpt lat="48.40292" lon="2.57784">
        <ele>113.59</ele>
        <time>2014-01-04T13:01:44Z</time>
      </trkpt>
      <trkpt lat="48.40271" lon="2.57489">
        <ele>114.38</ele>
        <time>2014-01-04T13:02:26Z</time>
      </trkpt>
      <trkpt lat="48.40271" lon="2.57392">
        <ele>114.11</ele>
        <time>2014-01-04T13:02:39Z</time>
      </trkpt>
      <trkpt lat="48.40272" lon="2.57329">
        <ele>114.24</ele>
        <time>2014-01-04T13:02:48Z</time>
      </trkpt>
      <trkpt lat="48.40268" lon="2.57246">
        <ele>113.67</ele>
        <time>2014-01-04T13:03:00Z</time>
      </trkpt>
      <trkpt lat="48.40272" lon="2.57169">
        <ele>113.66</ele>
        <time>2014-01-04T13:03:11Z</time>
      </trkpt>
      <trkpt lat="48.40269" lon="2.57128">
        <ele>113.76</ele>
        <time>2014-01-04T13:03:17Z</time>
      </trkpt>
      <trkpt lat="48.40267" lon="2.57064">
        <ele>113.84</ele>
        <time>2014-01-04T13:03:27Z</time>
      </trkpt>
      <trkpt lat="48.40263" lon="2.57007">
        <ele>113.67</ele>
        <time>2014-01-04T13:03:35Z</time>
      </trkpt>
      <trkpt lat="48.40258" lon="2.56853">
        <ele>113.44</ele>
        <time>2014-01-04T13:03:58Z</time>
      </trkpt>
      <trkpt lat="48.4026" lon="2.56816">
        <ele>113.44</ele>
        <time>2014-01-04T13:04:04Z</time>
      </trkpt>
      <trkpt lat="48.40268" lon="2.56745">
        <ele>113.69</ele>
        <time>2014-01-04T13:04:18Z</time>
      </trkpt>
      <trkpt lat="48.40258" lon="2.56674">
        <ele>113.37</ele>
        <time>2014-01-04T13:04:39Z</time>
      </trkpt>
      <trkpt lat="48.40254" lon="2.56659">
        <ele>113.41</ele>
        <time>2014-01-04T13:04:46Z</time>
      </trkpt>
      <trkpt lat="48.40247" lon="2.56638">
        <ele>114.66</ele>
        <time>2014-01-04T13:04:56Z</time>
      </trkpt>
      <trkpt lat="48.40235" lon="2.5659">
        <ele>116.78</ele>
        <time>2014-01-04T13:05:17Z</time>
      </trkpt>
      <trkpt lat="48.40239" lon="2.5657">
        <ele>116.72</ele>
        <time>2014-01-04T13:05:22Z</time>
      </trkpt>
      <trkpt lat="48.40246" lon="2.56539">
        <ele>116.65</ele>
        <time>2014-01-04T13:05:29Z</time>
      </trkpt>
      <trkpt lat="48.40262" lon="2.56446">
        <ele>116.86</ele>
        <time>2014-01-04T13:05:54Z</time>
      </trkpt>
      <trkpt lat="48.40265" lon="2.56399">
        <ele>116.15</ele>
        <time>2014-01-04T13:06:06Z</time>
      </trkpt>
      <trkpt lat="48.40248" lon="2.5638">
        <ele>117.59</ele>
        <time>2014-01-04T13:06:24Z</time>
      </trkpt>
      <trkpt lat="48.40233" lon="2.5636">
        <ele>118.83</ele>
        <time>2014-01-04T13:06:33Z</time>
      </trkpt>
      <trkpt lat="48.40221" lon="2.56355">
        <ele>118.91</ele>
        <time>2014-01-04T13:06:47Z</time>
      </trkpt>
      <trkpt lat="48.40226" lon="2.56348">
        <ele>119.11</ele>
        <time>2014-01-04T13:08:13Z</time>
      </trkpt>
      <trkpt lat="48.40185" lon="2.5634">
        <ele>118.51</ele>
        <time>2014-01-04T13:09:08Z</time>
      </trkpt>
      <trkpt lat="48.40151" lon="2.56338">
        <ele>120.74</ele>
        <time>2014-01-04T13:09:24Z</time>
      </trkpt>
      <trkpt lat="48.40147" lon="2.5633">
        <ele>120.96</ele>
        <time>2014-01-04T13:09:40Z</time>
      </trkpt>
      <trkpt lat="48.40105" lon="2.56286">
        <ele>119.78</ele>
        <time>2014-01-04T13:10:02Z</time>
      </trkpt>
      <trkpt lat="48.40084" lon="2.56271">
        <ele>118.85</ele>
        <time>2014-01-04T13:10:09Z</time>
      </trkpt>
      <trkpt lat="48.4006" lon="2.56255">
        <ele>115.68</ele>
        <time>2014-01-04T13:10:16Z</time>
      </trkpt>
      <trkpt lat="48.40058" lon="2.56252">
        <ele>115.54</ele>
        <time>2014-01-04T13:10:17Z</time>
      </trkpt>
      <trkpt lat="48.40045" lon="2.56236">
        <ele>114.13</ele>
        <time>2014-01-04T13:10:45Z</time>
      </trkpt>
      <trkpt lat="48.40044" lon="2.56236">
        <ele>114.16</ele>
        <time>2014-01-04T13:10:46Z</time>
      </trkpt>
      <trkpt lat="48.40019" lon="2.5627">
        <ele>113.49</ele>
        <time>2014-01-04T13:11:00Z</time>
      </trkpt>
      <trkpt lat="48.39981" lon="2.56316">
        <ele>114.64</ele>
        <time>2014-01-04T13:11:17Z</time>
      </trkpt>
      <trkpt lat="48.3998" lon="2.56355">
        <ele>114.12</ele>
        <time>2014-01-04T13:11:26Z</time>
      </trkpt>
      <trkpt lat="48.39972" lon="2.56446">
        <ele>115.16</ele>
        <time>2014-01-04T13:11:41Z</time>
      </trkpt>
      <trkpt lat="48.39955" lon="2.56533">
        <ele>114.91</ele>
        <time>2014-01-04T13:11:55Z</time>
      </trkpt>
      <trkpt lat="48.39911" lon="2.56704">
        <ele>114.34</ele>
        <time>2014-01-04T13:12:24Z</time>
      </trkpt>
      <trkpt lat="48.399" lon="2.56742">
        <ele>115.2</ele>
        <time>2014-01-04T13:12:30Z</time>
      </trkpt>
      <trkpt lat="48.39871" lon="2.56832">
        <ele>115.49</ele>
        <time>2014-01-04T13:12:44Z</time>
      </trkpt>
      <trkpt lat="48.3984" lon="2.56966">
        <ele>116.75</ele>
        <time>2014-01-04T13:13:04Z</time>
      </trkpt>
      <trkpt lat="48.39829" lon="2.57027">
        <ele>117.23</ele>
        <time>2014-01-04T13:13:13Z</time>
      </trkpt>
      <trkpt lat="48.39816" lon="2.57147">
        <ele>116.87</ele>
        <time>2014-01-04T13:13:31Z</time>
      </trkpt>
      <trkpt lat="48.39779" lon="2.57423">
        <ele>117.72</ele>
        <time>2014-01-04T13:14:17Z</time>
      </trkpt>
      <trkpt lat="48.39728" lon="2.57538">
        <ele>118.75</ele>
        <time>2014-01-04T13:14:41Z</time>
      </trkpt>
      <trkpt lat="48.39638" lon="2.57722">
        <ele>120.3</ele>
        <time>2014-01-04T13:15:21Z</time>
      </trkpt>
      <trkpt lat="48.39623" lon="2.5776">
        <ele>119.99</ele>
        <time>2014-01-04T13:15:29Z</time>
      </trkpt>
      <trkpt lat="48.39557" lon="2.57922">
        <ele>119.85</ele>
        <time>2014-01-04T13:15:57Z</time>
      </trkpt>
      <trkpt lat="48.39466" lon="2.58145">
        <ele>121.04</ele>
        <time>2014-01-04T13:16:43Z</time>
      </trkpt>
      <trkpt lat="48.39428" lon="2.58274">
        <ele>121.67</ele>
        <time>2014-01-04T13:17:13Z</time>
      </trkpt>
      <trkpt lat="48.39426" lon="2.58281">
        <ele>121.97</ele>
        <time>2014-01-04T13:17:15Z</time>
      </trkpt>
      <trkpt lat="48.39392" lon="2.58268">
        <ele>122.73</ele>
        <time>2014-01-04T13:17:27Z</time>
      </trkpt>
      <trkpt lat="48.39367" lon="2.5825">
        <ele>123.07</ele>
        <time>2014-01-04T13:17:35Z</time>
      </trkpt>
      <trkpt lat="48.3926" lon="2.58166">
        <ele>79.90625</ele>
      </trkpt>
      <trkpt lat="48.39249" lon="2.58152">
        <ele>123.61</ele>
        <time>2014-01-04T13:18:13Z</time>
      </trkpt>
      <trkpt lat="48.39242" lon="2.58141">
        <ele>80.8046875</ele>
      </trkpt>
      <trkpt lat="48.39235" lon="2.58131">
        <ele>80.33203125</ele>
      </trkpt>
      <trkpt lat="48.3921" lon="2.58116">
        <ele>127.33</ele>
        <time>2014-01-04T13:18:32Z</time>
      </trkpt>
      <trkpt lat="48.392" lon="2.58103">
        <ele>127.7</ele>
        <time>2014-01-04T13:23:57Z</time>
      </trkpt>
      <trkpt lat="48.39198" lon="2.58112">
        <ele>128.33</ele>
        <time>2014-01-04T13:26:31Z</time>
      </trkpt>
      <trkpt lat="48.39193" lon="2.58124">
        <ele>128.2</ele>
        <time>2014-01-04T13:26:54Z</time>
      </trkpt>
      <trkpt lat="48.39186" lon="2.58148">
        <ele>128.95</ele>
        <time>2014-01-04T13:31:17Z</time>
      </trkpt>
      <trkpt lat="48.39157" lon="2.58162">
        <ele>132.82</ele>
        <time>2014-01-04T13:31:43Z</time>
      </trkpt>
      <trkpt lat="48.39153" lon="2.58161">
        <ele>133.43</ele>
        <time>2014-01-04T13:31:45Z</time>
      </trkpt>
      <trkpt lat="48.39138" lon="2.58159">
        <ele>137.67</ele>
        <time>2014-01-04T13:32:00Z</time>
      </trkpt>
      <trkpt lat="48.39122" lon="2.58133">
        <ele>143.42</ele>
        <time>2014-01-04T13:32:30Z</time>
      </trkpt>
      <trkpt lat="48.39121" lon="2.58102">
        <ele>147.64</ele>
        <time>2014-01-04T13:32:55Z</time>
      </trkpt>
      <trkpt lat="48.39121" lon="2.5809">
        <ele>147.84</ele>
        <time>2014-01-04T13:33:14Z</time>
      </trkpt>
      <trkpt lat="48.39117" lon="2.5807">
        <ele>146.21</ele>
        <time>2014-01-04T13:33:22Z</time>
      </trkpt>
      <trkpt lat="48.39107" lon="2.58063">
        <ele>147.29</ele>
        <time>2014-01-04T13:33:51Z</time>
      </trkpt>
      <trkpt lat="48.39105" lon="2.58062">
        <ele>150.6</ele>
        <time>2014-01-04T13:34:17Z</time>
      </trkpt>
      <trkpt lat="48.39092" lon="2.58051">
        <ele>155.28</ele>
        <time>2014-01-04T13:34:45Z</time>
      </trkpt>
      <trkpt lat="48.39084" lon="2.58058">
        <ele>158.32</ele>
        <time>2014-01-04T13:35:00Z</time>
      </trkpt>
      <trkpt lat="48.39076" lon="2.58072">
        <ele>163.24</ele>
        <time>2014-01-04T13:35:27Z</time>
      </trkpt>
      <trkpt lat="48.39068" lon="2.58077">
        <ele>163.52</ele>
        <time>2014-01-04T13:35:40Z</time>
      </trkpt>
      <trkpt lat="48.39057" lon="2.58056">
        <ele>166.86</ele>
        <time>2014-01-04T13:36:04Z</time>
      </trkpt>
      <trkpt lat="48.39045" lon="2.58039">
        <ele>167.64</ele>
        <time>2014-01-04T13:36:47Z</time>
      </trkpt>
      <trkpt lat="48.3905" lon="2.58062">
        <ele>166</ele>
        <time>2014-01-04T13:41:42Z</time>
      </trkpt>
      <trkpt lat="48.39044" lon="2.58075">
        <ele>167.5</ele>
        <time>2014-01-04T13:41:50Z</time>
      </trkpt>
      <trkpt lat="48.39043" lon="2.5809">
        <ele>167.78</ele>
        <time>2014-01-04T13:41:57Z</time>
      </trkpt>
      <trkpt lat="48.39043" lon="2.58097">
        <ele>167.94</ele>
        <time>2014-01-04T13:42:01Z</time>
      </trkpt>
      <trkpt lat="48.39039" lon="2.58117">
        <ele>168.36</ele>
        <time>2014-01-04T13:42:14Z</time>
      </trkpt>
      <trkpt lat="48.39032" lon="2.58142">
        <ele>168.2</ele>
        <time>2014-01-04T13:42:37Z</time>
      </trkpt>
      <trkpt lat="48.39026" lon="2.58155">
        <ele>168.36</ele>
        <time>2014-01-04T13:43:03Z</time>
      </trkpt>
      <trkpt lat="48.39003" lon="2.58193">
        <ele>167.67</ele>
        <time>2014-01-04T13:43:19Z</time>
      </trkpt>
      <trkpt lat="48.38995" lon="2.58231">
        <ele>168.36</ele>
        <time>2014-01-04T13:43:30Z</time>
      </trkpt>
      <trkpt lat="48.39009" lon="2.58259">
        <ele>168.85</ele>
        <time>2014-01-04T13:43:45Z</time>
      </trkpt>
      <trkpt lat="48.39019" lon="2.58271">
        <ele>168.89</ele>
        <time>2014-01-04T13:43:58Z</time>
      </trkpt>
      <trkpt lat="48.39021" lon="2.5832">
        <ele>168.77</ele>
        <time>2014-01-04T13:44:14Z</time>
      </trkpt>
      <trkpt lat="48.39025" lon="2.5835">
        <ele>168.25</ele>
        <time>2014-01-04T13:44:29Z</time>
      </trkpt>
      <trkpt lat="48.39032" lon="2.58379">
        <ele>168.71</ele>
        <time>2014-01-04T13:44:48Z</time>
      </trkpt>
      <trkpt lat="48.39028" lon="2.58378">
        <ele>168.44</ele>
        <time>2014-01-04T13:45:33Z</time>
      </trkpt>
      <trkpt lat="48.39017" lon="2.58417">
        <ele>168.98</ele>
        <time>2014-01-04T13:45:48Z</time>
      </trkpt>
      <trkpt lat="48.39012" lon="2.58439">
        <ele>168.71</ele>
        <time>2014-01-04T13:46:00Z</time>
      </trkpt>
      <trkpt lat="48.39003" lon="2.58499">
        <ele>168.5</ele>
        <time>2014-01-04T13:46:24Z</time>
      </trkpt>
      <trkpt lat="48.38985" lon="2.58536">
        <ele>168.8</ele>
        <time>2014-01-04T13:46:50Z</time>
      </trkpt>
      <trkpt lat="48.38982" lon="2.58549">
        <ele>168.25</ele>
        <time>2014-01-04T13:46:56Z</time>
      </trkpt>
      <trkpt lat="48.38968" lon="2.58592">
        <ele>168.7</ele>
        <time>2014-01-04T13:47:18Z</time>
      </trkpt>
      <trkpt lat="48.38945" lon="2.5866">
        <ele>167.13</ele>
        <time>2014-01-04T13:47:42Z</time>
      </trkpt>
      <trkpt lat="48.38939" lon="2.58737">
        <ele>168.2</ele>
        <time>2014-01-04T13:48:03Z</time>
      </trkpt>
      <trkpt lat="48.38927" lon="2.58789">
        <ele>168.33</ele>
        <time>2014-01-04T13:48:23Z</time>
      </trkpt>
      <trkpt lat="48.38925" lon="2.58819">
        <ele>168.15</ele>
        <time>2014-01-04T13:48:34Z</time>
      </trkpt>
      <trkpt lat="48.38934" lon="2.58853">
        <ele>168.4</ele>
        <time>2014-01-04T13:48:51Z</time>
      </trkpt>
      <trkpt lat="48.38931" lon="2.58916">
        <ele>168.12</ele>
        <time>2014-01-04T13:49:14Z</time>
      </trkpt>
      <trkpt lat="48.38935" lon="2.58936">
        <ele>168.17</ele>
        <time>2014-01-04T13:49:23Z</time>
      </trkpt>
      <trkpt lat="48.38936" lon="2.5898">
        <ele>168.09</ele>
        <time>2014-01-04T13:49:38Z</time>
      </trkpt>
      <trkpt lat="48.38943" lon="2.59018">
        <ele>167.17</ele>
        <time>2014-01-04T13:49:53Z</time>
      </trkpt>
      <trkpt lat="48.38936" lon="2.59065">
        <ele>166.71</ele>
        <time>2014-01-04T13:50:08Z</time>
      </trkpt>
      <trkpt lat="48.38931" lon="2.59108">
        <ele>166.66</ele>
        <time>2014-01-04T13:50:22Z</time>
      </trkpt>
      <trkpt lat="48.38938" lon="2.59187">
        <ele>165.59</ele>
        <time>2014-01-04T13:50:50Z</time>
      </trkpt>
      <trkpt lat="48.3893" lon="2.59254">
        <ele>166.14</ele>
        <time>2014-01-04T13:51:12Z</time>
      </trkpt>
      <trkpt lat="48.38929" lon="2.59262">
        <ele>166.11</ele>
        <time>2014-01-04T13:51:18Z</time>
      </trkpt>
      <trkpt lat="48.38915" lon="2.59316">
        <ele>165.13</ele>
        <time>2014-01-04T13:51:37Z</time>
      </trkpt>
      <trkpt lat="48.38912" lon="2.59321">
        <ele>164.74</ele>
        <time>2014-01-04T13:51:55Z</time>
      </trkpt>
      <trkpt lat="48.38911" lon="2.59356">
        <ele>164.78</ele>
        <time>2014-01-04T13:52:37Z</time>
      </trkpt>
      <trkpt lat="48.38902" lon="2.59396">
        <ele>165.06</ele>
        <time>2014-01-04T13:52:55Z</time>
      </trkpt>
      <trkpt lat="48.38891" lon="2.59434">
        <ele>165.13</ele>
        <time>2014-01-04T13:53:17Z</time>
      </trkpt>
      <trkpt lat="48.38893" lon="2.59435">
        <ele>165.05</ele>
        <time>2014-01-04T13:53:21Z</time>
      </trkpt>
      <trkpt lat="48.38903" lon="2.59463">
        <ele>164.29</ele>
        <time>2014-01-04T13:53:34Z</time>
      </trkpt>
      <trkpt lat="48.38926" lon="2.59482">
        <ele>160.91</ele>
        <time>2014-01-04T13:53:47Z</time>
      </trkpt>
      <trkpt lat="48.38918" lon="2.59512">
        <ele>159.82</ele>
        <time>2014-01-04T13:54:00Z</time>
      </trkpt>
      <trkpt lat="48.38898" lon="2.59548">
        <ele>160.83</ele>
        <time>2014-01-04T13:54:17Z</time>
      </trkpt>
      <trkpt lat="48.38897" lon="2.59565">
        <ele>159.95</ele>
        <time>2014-01-04T13:54:23Z</time>
      </trkpt>
      <trkpt lat="48.38897" lon="2.59612">
        <ele>160.63</ele>
        <time>2014-01-04T13:54:37Z</time>
      </trkpt>
      <trkpt lat="48.38915" lon="2.59695">
        <ele>163.46</ele>
        <time>2014-01-04T13:55:04Z</time>
      </trkpt>
      <trkpt lat="48.38915" lon="2.59723">
        <ele>163.7</ele>
        <time>2014-01-04T13:55:11Z</time>
      </trkpt>
      <trkpt lat="48.3891" lon="2.59751">
        <ele>164.05</ele>
        <time>2014-01-04T13:55:19Z</time>
      </trkpt>
      <trkpt lat="48.38907" lon="2.59774">
        <ele>163.83</ele>
        <time>2014-01-04T13:55:26Z</time>
      </trkpt>
      <trkpt lat="48.38934" lon="2.59797">
        <ele>166.12</ele>
        <time>2014-01-04T13:55:45Z</time>
      </trkpt>
      <trkpt lat="48.38978" lon="2.59805">
        <ele>166.77</ele>
        <time>2014-01-04T13:56:00Z</time>
      </trkpt>
      <trkpt lat="48.39098" lon="2.59827">
        <ele>166.79</ele>
        <time>2014-01-04T13:56:30Z</time>
      </trkpt>
      <trkpt lat="48.39169" lon="2.59842">
        <ele>163.44</ele>
        <time>2014-01-04T13:56:45Z</time>
      </trkpt>
      <trkpt lat="48.39215" lon="2.59851">
        <ele>160.02</ele>
        <time>2014-01-04T13:56:53Z</time>
      </trkpt>
      <trkpt lat="48.39251" lon="2.59858">
        <ele>156.85</ele>
        <time>2014-01-04T13:57:00Z</time>
      </trkpt>
      <trkpt lat="48.39279" lon="2.59861">
        <ele>153.11</ele>
        <time>2014-01-04T13:57:04Z</time>
      </trkpt>
      <trkpt lat="48.39333" lon="2.59886">
        <ele>145.2</ele>
        <time>2014-01-04T13:57:10Z</time>
      </trkpt>
      <trkpt lat="48.39363" lon="2.59905">
        <ele>141.85</ele>
        <time>2014-01-04T13:57:13Z</time>
      </trkpt>
      <trkpt lat="48.3939" lon="2.59922">
        <ele>138.57</ele>
        <time>2014-01-04T13:57:16Z</time>
      </trkpt>
      <trkpt lat="48.39437" lon="2.5995">
        <ele>134.29</ele>
        <time>2014-01-04T13:57:22Z</time>
      </trkpt>
      <trkpt lat="48.39457" lon="2.59963">
        <ele>131.26</ele>
        <time>2014-01-04T13:57:25Z</time>
      </trkpt>
      <trkpt lat="48.39463" lon="2.59967">
        <ele>131.1</ele>
        <time>2014-01-04T13:57:26Z</time>
      </trkpt>
      <trkpt lat="48.39545" lon="2.59982">
        <ele>129.61</ele>
        <time>2014-01-04T13:57:46Z</time>
      </trkpt>
      <trkpt lat="48.39596" lon="2.59968">
        <ele>133.01</ele>
        <time>2014-01-04T13:58:12Z</time>
      </trkpt>
      <trkpt lat="48.39607" lon="2.59968">
        <ele>135.91</ele>
        <time>2014-01-04T13:58:35Z</time>
      </trkpt>
      <trkpt lat="48.39621" lon="2.59969">
        <ele>140.99</ele>
        <time>2014-01-04T13:59:11Z</time>
      </trkpt>
      <trkpt lat="48.39628" lon="2.59975">
        <ele>141.72</ele>
        <time>2014-01-04T13:59:23Z</time>
      </trkpt>
      <trkpt lat="48.39643" lon="2.60017">
        <ele>144.63</ele>
        <time>2014-01-04T13:59:47Z</time>
      </trkpt>
      <trkpt lat="48.39672" lon="2.60052">
        <ele>147.54</ele>
        <time>2014-01-04T14:00:10Z</time>
      </trkpt>
      <trkpt lat="48.39697" lon="2.60057">
        <ele>152.04</ele>
        <time>2014-01-04T14:00:38Z</time>
      </trkpt>
      <trkpt lat="48.39705" lon="2.60057">
        <ele>153.08</ele>
        <time>2014-01-04T14:00:48Z</time>
      </trkpt>
      <trkpt lat="48.39711" lon="2.60065">
        <ele>153.45</ele>
        <time>2014-01-04T14:00:56Z</time>
      </trkpt>
      <trkpt lat="48.39715" lon="2.60073">
        <ele>153.7</ele>
        <time>2014-01-04T14:01:02Z</time>
      </trkpt>
      <trkpt lat="48.39733" lon="2.60107">
        <ele>154.34</ele>
        <time>2014-01-04T14:01:17Z</time>
      </trkpt>
      <trkpt lat="48.39745" lon="2.60128">
        <ele>153.14</ele>
        <time>2014-01-04T14:01:29Z</time>
      </trkpt>
      <trkpt lat="48.39754" lon="2.60136">
        <ele>151.9</ele>
        <time>2014-01-04T14:01:34Z</time>
      </trkpt>
      <trkpt lat="48.39795" lon="2.60191">
        <ele>151.93</ele>
        <time>2014-01-04T14:02:01Z</time>
      </trkpt>
      <trkpt lat="48.39794" lon="2.60225">
        <ele>151.06</ele>
        <time>2014-01-04T14:02:25Z</time>
      </trkpt>
      <trkpt lat="48.39796" lon="2.60227">
        <ele>151.2</ele>
        <time>2014-01-04T14:02:34Z</time>
      </trkpt>
      <trkpt lat="48.39813" lon="2.60247">
        <ele>152.15</ele>
        <time>2014-01-04T14:02:44Z</time>
      </trkpt>
      <trkpt lat="48.39851" lon="2.60335">
        <ele>152.75</ele>
        <time>2014-01-04T14:03:05Z</time>
      </trkpt>
      <trkpt lat="48.39879" lon="2.60407">
        <ele>153.12</ele>
        <time>2014-01-04T14:03:22Z</time>
      </trkpt>
      <trkpt lat="48.39912" lon="2.60415">
        <ele>153.59</ele>
        <time>2014-01-04T14:03:34Z</time>
      </trkpt>
      <trkpt lat="48.39989" lon="2.60471">
        <ele>154.31</ele>
        <time>2014-01-04T14:03:59Z</time>
      </trkpt>
      <trkpt lat="48.40071" lon="2.60478">
        <ele>157.29</ele>
        <time>2014-01-04T14:04:28Z</time>
      </trkpt>
      <trkpt lat="48.40098" lon="2.60464">
        <ele>161.77</ele>
        <time>2014-01-04T14:04:45Z</time>
      </trkpt>
      <trkpt lat="48.4011" lon="2.60467">
        <ele>163.79</ele>
        <time>2014-01-04T14:04:52Z</time>
      </trkpt>
      <trkpt lat="48.40131" lon="2.60485">
        <ele>166.13</ele>
        <time>2014-01-04T14:05:04Z</time>
      </trkpt>
      <trkpt lat="48.40207" lon="2.60497">
        <ele>163.59</ele>
        <time>2014-01-04T14:05:31Z</time>
      </trkpt>
      <trkpt lat="48.40218" lon="2.60502">
        <ele>164.58</ele>
        <time>2014-01-04T14:05:37Z</time>
      </trkpt>
      <trkpt lat="48.40239" lon="2.60525">
        <ele>166.1</ele>
        <time>2014-01-04T14:06:03Z</time>
      </trkpt>
      <trkpt lat="48.40238" lon="2.60527">
        <ele>166.34</ele>
        <time>2014-01-04T14:06:53Z</time>
      </trkpt>
      <trkpt lat="48.40237" lon="2.60526">
        <ele>165.51</ele>
        <time>2014-01-04T14:07:34Z</time>
      </trkpt>
      <trkpt lat="48.40265" lon="2.60562">
        <ele>168.16</ele>
        <time>2014-01-04T14:07:55Z</time>
      </trkpt>
      <trkpt lat="48.40302" lon="2.60623">
        <ele>164.34</ele>
        <time>2014-01-04T14:08:14Z</time>
      </trkpt>
      <trkpt lat="48.4034" lon="2.60672">
        <ele>165.97</ele>
        <time>2014-01-04T14:08:33Z</time>
      </trkpt>
      <trkpt lat="48.40389" lon="2.60711">
        <ele>166.4</ele>
        <time>2014-01-04T14:09:01Z</time>
      </trkpt>
      <trkpt lat="48.404" lon="2.60713">
        <ele>167.02</ele>
        <time>2014-01-04T14:09:06Z</time>
      </trkpt>
      <trkpt lat="48.40429" lon="2.60718">
        <ele>168.25</ele>
        <time>2014-01-04T14:09:18Z</time>
      </trkpt>
      <trkpt lat="48.40513" lon="2.60726">
        <ele>169.27</ele>
        <time>2014-01-04T14:09:47Z</time>
      </trkpt>
      <trkpt lat="48.40612" lon="2.60735">
        <ele>168.54</ele>
        <time>2014-01-04T14:10:16Z</time>
      </trkpt>
      <trkpt lat="48.40663" lon="2.60739">
        <ele>167.88</ele>
        <time>2014-01-04T14:10:30Z</time>
      </trkpt>
      <trkpt lat="48.40678" lon="2.60709">
        <ele>163.76</ele>
        <time>2014-01-04T14:10:41Z</time>
      </trkpt>
      <trkpt lat="48.40679" lon="2.60699">
        <ele>160.54</ele>
        <time>2014-01-04T14:10:45Z</time>
      </trkpt>
      <trkpt lat="48.40686" lon="2.60694">
        <ele>158.96</ele>
        <time>2014-01-04T14:10:54Z</time>
      </trkpt>
      <trkpt lat="48.40706" lon="2.60689">
        <ele>155.13</ele>
        <time>2014-01-04T14:11:08Z</time>
      </trkpt>
      <trkpt lat="48.40706" lon="2.60689">
        <ele>155.09</ele>
        <time>2014-01-04T14:11:16Z</time>
      </trkpt>
      <trkpt lat="48.40712" lon="2.60686">
        <ele>153.24</ele>
        <time>2014-01-04T14:11:50Z</time>
      </trkpt>
      <trkpt lat="48.40719" lon="2.60687">
        <ele>151.17</ele>
        <time>2014-01-04T14:12:06Z</time>
      </trkpt>
      <trkpt lat="48.40733" lon="2.6069">
        <ele>147.64</ele>
        <time>2014-01-04T14:12:28Z</time>
      </trkpt>
      <trkpt lat="48.40753" lon="2.60694">
        <ele>145.74</ele>
        <time>2014-01-04T14:12:33Z</time>
      </trkpt>
      <trkpt lat="48.40774" lon="2.60696">
        <ele>142.12</ele>
        <time>2014-01-04T14:12:39Z</time>
      </trkpt>
      <trkpt lat="48.40779" lon="2.60698">
        <ele>142.12</ele>
        <time>2014-01-04T14:12:53Z</time>
      </trkpt>
      <trkpt lat="48.40809" lon="2.60705">
        <ele>141.69</ele>
        <time>2014-01-04T14:13:53Z</time>
      </trkpt>
      <trkpt lat="48.40824" lon="2.60716">
        <ele>140.92</ele>
        <time>2014-01-04T14:14:00Z</time>
      </trkpt>
      <trkpt lat="48.4085" lon="2.60714">
        <ele>137.67</ele>
        <time>2014-01-04T14:14:09Z</time>
      </trkpt>
      <trkpt lat="48.40884" lon="2.6073">
        <ele>133.19</ele>
        <time>2014-01-04T14:14:22Z</time>
      </trkpt>
      <trkpt lat="48.40889" lon="2.60734">
        <ele>131.84</ele>
        <time>2014-01-04T14:14:33Z</time>
      </trkpt>
      <trkpt lat="48.40917" lon="2.60749">
        <ele>129.04</ele>
        <time>2014-01-04T14:14:55Z</time>
      </trkpt>
      <trkpt lat="48.40922" lon="2.60749">
        <ele>129.1</ele>
        <time>2014-01-04T14:15:59Z</time>
      </trkpt>
      <trkpt lat="48.40973" lon="2.60764">
        <ele>127.35</ele>
        <time>2014-01-04T14:16:53Z</time>
      </trkpt>
      <trkpt lat="48.40995" lon="2.60771">
        <ele>126.65</ele>
        <time>2014-01-04T14:17:00Z</time>
      </trkpt>
      <trkpt lat="48.41005" lon="2.6079">
        <ele>126.54</ele>
        <time>2014-01-04T14:17:07Z</time>
      </trkpt>
      <trkpt lat="48.4101" lon="2.60803">
        <ele>127.14</ele>
        <time>2014-01-04T14:17:35Z</time>
      </trkpt>
      <trkpt lat="48.41014" lon="2.60808">
        <ele>127.07</ele>
        <time>2014-01-04T14:18:10Z</time>
      </trkpt>
      <trkpt lat="48.41028" lon="2.6081">
        <ele>127.69</ele>
        <time>2014-01-04T14:18:17Z</time>
      </trkpt>
      <trkpt lat="48.41048" lon="2.60814">
        <ele>127.21</ele>
        <time>2014-01-04T14:18:24Z</time>
      </trkpt>
      <trkpt lat="48.41092" lon="2.6086">
        <ele>125.97</ele>
        <time>2014-01-04T14:18:36Z</time>
      </trkpt>
      <trkpt lat="48.41122" lon="2.60949">
        <ele>126.49</ele>
        <time>2014-01-04T14:18:55Z</time>
      </trkpt>
      <trkpt lat="48.41101" lon="2.6096">
        <ele>130.14</ele>
        <time>2014-01-04T15:07:23Z</time>
      </trkpt>
      <trkpt lat="48.41047" lon="2.6098">
        <ele>133.44</ele>
        <time>2014-01-04T15:07:15Z</time>
      </trkpt>
      <trkpt lat="48.40987" lon="2.60973">
        <ele>138.82</ele>
        <time>2014-01-04T15:07:07Z</time>
      </trkpt>
      <trkpt lat="48.4093" lon="2.61011">
        <ele>144.83</ele>
        <time>2014-01-04T15:06:53Z</time>
      </trkpt>
      <trkpt lat="48.40895" lon="2.61041">
        <ele>143.91</ele>
        <time>2014-01-04T15:06:40Z</time>
      </trkpt>
      <trkpt lat="48.40885" lon="2.61056">
        <ele>141.97</ele>
        <time>2014-01-04T15:06:34Z</time>
      </trkpt>
      <trkpt lat="48.40874" lon="2.61098">
        <ele>138.83</ele>
        <time>2014-01-04T15:06:22Z</time>
      </trkpt>
      <trkpt lat="48.40874" lon="2.61163">
        <ele>136.31</ele>
        <time>2014-01-04T15:06:06Z</time>
      </trkpt>
      <trkpt lat="48.40901" lon="2.61347">
        <ele>134.57</ele>
        <time>2014-01-04T15:05:34Z</time>
      </trkpt>
      <trkpt lat="48.40913" lon="2.61413">
        <ele>135.53</ele>
        <time>2014-01-04T15:05:25Z</time>
      </trkpt>
      <trkpt lat="48.40912" lon="2.61431">
        <ele>135.61</ele>
        <time>2014-01-04T15:05:23Z</time>
      </trkpt>
      <trkpt lat="48.40903" lon="2.61468">
        <ele>137.58</ele>
        <time>2014-01-04T15:05:19Z</time>
      </trkpt>
      <trkpt lat="48.40899" lon="2.61484">
        <ele>138.29</ele>
        <time>2014-01-04T15:05:17Z</time>
      </trkpt>
      <trkpt lat="48.40856" lon="2.61572">
        <ele>139.98</ele>
        <time>2014-01-04T15:04:58Z</time>
      </trkpt>
      <trkpt lat="48.40846" lon="2.616">
        <ele>140.1</ele>
        <time>2014-01-04T15:04:51Z</time>
      </trkpt>
      <trkpt lat="48.40817" lon="2.61789">
        <ele>141.02</ele>
        <time>2014-01-04T15:04:05Z</time>
      </trkpt>
      <trkpt lat="48.40814" lon="2.61806">
        <ele>141.51</ele>
        <time>2014-01-04T15:04:01Z</time>
      </trkpt>
      <trkpt lat="48.40844" lon="2.618">
        <ele>143.04</ele>
        <time>2014-01-04T15:03:53Z</time>
      </trkpt>
      <trkpt lat="48.40865" lon="2.61777">
        <ele>144.98</ele>
        <time>2014-01-04T15:03:49Z</time>
      </trkpt>
      <trkpt lat="48.40874" lon="2.61767">
        <ele>145.78</ele>
        <time>2014-01-04T15:03:47Z</time>
      </trkpt>
      <trkpt lat="48.40883" lon="2.61754">
        <ele>146.99</ele>
        <time>2014-01-04T15:03:38Z</time>
      </trkpt>
      <trkpt lat="48.4089" lon="2.61745">
        <ele>149.88</ele>
        <time>2014-01-04T15:03:17Z</time>
      </trkpt>
      <trkpt lat="48.40904" lon="2.61745">
        <ele>153.39</ele>
        <time>2014-01-04T15:02:58Z</time>
      </trkpt>
      <trkpt lat="48.40913" lon="2.61733">
        <ele>155.81</ele>
        <time>2014-01-04T15:02:47Z</time>
      </trkpt>
      <trkpt lat="48.40923" lon="2.61712">
        <ele>161.53</ele>
        <time>2014-01-04T15:02:32Z</time>
      </trkpt>
      <trkpt lat="48.40924" lon="2.61703">
        <ele>162.06</ele>
        <time>2014-01-04T15:02:24Z</time>
      </trkpt>
      <trkpt lat="48.40937" lon="2.61698">
        <ele>166.94</ele>
        <time>2014-01-04T15:02:12Z</time>
      </trkpt>
      <trkpt lat="48.40948" lon="2.61709">
        <ele>170.36</ele>
        <time>2014-01-04T15:02:01Z</time>
      </trkpt>
      <trkpt lat="48.4096" lon="2.61721">
        <ele>170.31</ele>
        <time>2014-01-04T15:01:47Z</time>
      </trkpt>
      <trkpt lat="48.40977" lon="2.61749">
        <ele>171.07</ele>
        <time>2014-01-04T15:01:31Z</time>
      </trkpt>
      <trkpt lat="48.40978" lon="2.6175">
        <ele>170.7</ele>
        <time>2014-01-04T15:00:48Z</time>
      </trkpt>
      <trkpt lat="48.40978" lon="2.61751">
        <ele>170.84</ele>
        <time>2014-01-04T15:00:35Z</time>
      </trkpt>
      <trkpt lat="48.40967" lon="2.61764">
        <ele>172.52</ele>
        <time>2014-01-04T14:59:42Z</time>
      </trkpt>
      <trkpt lat="48.40961" lon="2.61789">
        <ele>173.06</ele>
        <time>2014-01-04T14:59:12Z</time>
      </trkpt>
      <trkpt lat="48.40957" lon="2.61798">
        <ele>173.88</ele>
        <time>2014-01-04T14:59:02Z</time>
      </trkpt>
      <trkpt lat="48.40953" lon="2.61814">
        <ele>173.86</ele>
        <time>2014-01-04T14:58:35Z</time>
      </trkpt>
      <trkpt lat="48.40958" lon="2.61846">
        <ele>173.45</ele>
        <time>2014-01-04T14:58:15Z</time>
      </trkpt>
      <trkpt lat="48.40959" lon="2.61846">
        <ele>173.63</ele>
        <time>2014-01-04T14:58:09Z</time>
      </trkpt>
      <trkpt lat="48.40956" lon="2.61857">
        <ele>173.49</ele>
        <time>2014-01-04T14:58:02Z</time>
      </trkpt>
      <trkpt lat="48.40945" lon="2.61902">
        <ele>170.75</ele>
        <time>2014-01-04T14:57:46Z</time>
      </trkpt>
      <trkpt lat="48.4095" lon="2.61922">
        <ele>170.84</ele>
        <time>2014-01-04T14:57:42Z</time>
      </trkpt>
      <trkpt lat="48.40971" lon="2.61946">
        <ele>174.04</ele>
        <time>2014-01-04T14:57:32Z</time>
      </trkpt>
      <trkpt lat="48.40953" lon="2.61961">
        <ele>174.1</ele>
        <time>2014-01-04T14:57:15Z</time>
      </trkpt>
      <trkpt lat="48.40944" lon="2.61987">
        <ele>174.3</ele>
        <time>2014-01-04T14:56:56Z</time>
      </trkpt>
      <trkpt lat="48.40936" lon="2.61991">
        <ele>174</ele>
        <time>2014-01-04T14:56:46Z</time>
      </trkpt>
      <trkpt lat="48.40934" lon="2.61984">
        <ele>173.8</ele>
        <time>2014-01-04T14:56:36Z</time>
      </trkpt>
      <trkpt lat="48.40927" lon="2.62023">
        <ele>173.21</ele>
        <time>2014-01-04T14:56:06Z</time>
      </trkpt>
      <trkpt lat="48.40923" lon="2.62034">
        <ele>173.4</ele>
        <time>2014-01-04T14:56:00Z</time>
      </trkpt>
      <trkpt lat="48.40915" lon="2.62073">
        <ele>173.77</ele>
        <time>2014-01-04T14:55:20Z</time>
      </trkpt>
      <trkpt lat="48.40908" lon="2.62101">
        <ele>174.35</ele>
        <time>2014-01-04T14:54:39Z</time>
      </trkpt>
      <trkpt lat="48.40896" lon="2.62137">
        <ele>174.88</ele>
        <time>2014-01-04T14:54:19Z</time>
      </trkpt>
      <trkpt lat="48.40903" lon="2.62146">
        <ele>175.04</ele>
        <time>2014-01-04T14:54:13Z</time>
      </trkpt>
      <trkpt lat="48.40912" lon="2.6215">
        <ele>176.11</ele>
        <time>2014-01-04T14:53:58Z</time>
      </trkpt>
      <trkpt lat="48.40906" lon="2.62186">
        <ele>175.25</ele>
        <time>2014-01-04T14:53:43Z</time>
      </trkpt>
      <trkpt lat="48.40906" lon="2.62209">
        <ele>173.7</ele>
        <time>2014-01-04T14:53:34Z</time>
      </trkpt>
      <trkpt lat="48.40907" lon="2.6221">
        <ele>173.43</ele>
        <time>2014-01-04T14:53:33Z</time>
      </trkpt>
      <trkpt lat="48.40913" lon="2.62254">
        <ele>171.49</ele>
        <time>2014-01-04T14:53:14Z</time>
      </trkpt>
      <trkpt lat="48.40942" lon="2.62274">
        <ele>172.44</ele>
        <time>2014-01-04T14:52:55Z</time>
      </trkpt>
      <trkpt lat="48.4096" lon="2.62293">
        <ele>172.53</ele>
        <time>2014-01-04T14:52:42Z</time>
      </trkpt>
      <trkpt lat="48.40946" lon="2.62316">
        <ele>174.8</ele>
        <time>2014-01-04T14:52:31Z</time>
      </trkpt>
      <trkpt lat="48.40951" lon="2.62329">
        <ele>173.85</ele>
        <time>2014-01-04T14:52:24Z</time>
      </trkpt>
      <trkpt lat="48.40951" lon="2.6233">
        <ele>173.82</ele>
        <time>2014-01-04T14:52:23Z</time>
      </trkpt>
      <trkpt lat="48.40958" lon="2.62329">
        <ele>172.73</ele>
        <time>2014-01-04T14:52:14Z</time>
      </trkpt>
      <trkpt lat="48.40957" lon="2.6235">
        <ele>174.92</ele>
        <time>2014-01-04T14:51:55Z</time>
      </trkpt>
      <trkpt lat="48.40957" lon="2.62358">
        <ele>175.06</ele>
        <time>2014-01-04T14:51:33Z</time>
      </trkpt>
      <trkpt lat="48.40947" lon="2.62368">
        <ele>174.99</ele>
        <time>2014-01-04T14:51:11Z</time>
      </trkpt>
      <trkpt lat="48.40939" lon="2.6239">
        <ele>174.43</ele>
        <time>2014-01-04T14:51:02Z</time>
      </trkpt>
      <trkpt lat="48.4093" lon="2.62415">
        <ele>173.94</ele>
        <time>2014-01-04T14:50:53Z</time>
      </trkpt>
      <trkpt lat="48.40923" lon="2.62437">
        <ele>173.53</ele>
        <time>2014-01-04T14:50:47Z</time>
      </trkpt>
      <trkpt lat="48.40903" lon="2.62506">
        <ele>176.04</ele>
        <time>2014-01-04T14:50:25Z</time>
      </trkpt>
      <trkpt lat="48.40904" lon="2.62545">
        <ele>175.36</ele>
        <time>2014-01-04T14:50:10Z</time>
      </trkpt>
      <trkpt lat="48.40905" lon="2.62563">
        <ele>175.05</ele>
        <time>2014-01-04T14:50:05Z</time>
      </trkpt>
      <trkpt lat="48.40905" lon="2.62566">
        <ele>175.35</ele>
        <time>2014-01-04T14:49:54Z</time>
      </trkpt>
      <trkpt lat="48.40902" lon="2.62585">
        <ele>173.32</ele>
        <time>2014-01-04T14:49:01Z</time>
      </trkpt>
      <trkpt lat="48.40893" lon="2.62611">
        <ele>174.73</ele>
        <time>2014-01-04T14:48:38Z</time>
      </trkpt>
      <trkpt lat="48.40876" lon="2.62666">
        <ele>174.74</ele>
        <time>2014-01-04T14:48:10Z</time>
      </trkpt>
      <trkpt lat="48.40866" lon="2.62674">
        <ele>174.3</ele>
        <time>2014-01-04T14:48:03Z</time>
      </trkpt>
      <trkpt lat="48.40856" lon="2.6269">
        <ele>174.34</ele>
        <time>2014-01-04T14:47:53Z</time>
      </trkpt>
      <trkpt lat="48.40869" lon="2.62713">
        <ele>173.08</ele>
        <time>2014-01-04T14:47:29Z</time>
      </trkpt>
      <trkpt lat="48.40868" lon="2.62719">
        <ele>174.3</ele>
        <time>2014-01-04T14:47:19Z</time>
      </trkpt>
      <trkpt lat="48.40853" lon="2.6275">
        <ele>174.56</ele>
        <time>2014-01-04T14:47:02Z</time>
      </trkpt>
      <trkpt lat="48.40868" lon="2.62781">
        <ele>172.33</ele>
        <time>2014-01-04T14:46:45Z</time>
      </trkpt>
      <trkpt lat="48.40867" lon="2.62783">
        <ele>172.57</ele>
        <time>2014-01-04T14:46:41Z</time>
      </trkpt>
      <trkpt lat="48.40894" lon="2.62797">
        <ele>174.23</ele>
        <time>2014-01-04T14:46:23Z</time>
      </trkpt>
      <trkpt lat="48.40899" lon="2.62844">
        <ele>174.26</ele>
        <time>2014-01-04T14:46:06Z</time>
      </trkpt>
      <trkpt lat="48.40903" lon="2.62848">
        <ele>175.35</ele>
        <time>2014-01-04T14:46:01Z</time>
      </trkpt>
      <trkpt lat="48.40909" lon="2.62852">
        <ele>175.01</ele>
        <time>2014-01-04T14:45:41Z</time>
      </trkpt>
      <trkpt lat="48.40917" lon="2.62896">
        <ele>175.21</ele>
        <time>2014-01-04T14:45:21Z</time>
      </trkpt>
      <trkpt lat="48.40929" lon="2.62912">
        <ele>173.8</ele>
        <time>2014-01-04T14:45:10Z</time>
      </trkpt>
      <trkpt lat="48.40932" lon="2.62924">
        <ele>174.7</ele>
        <time>2014-01-04T14:45:05Z</time>
      </trkpt>
      <trkpt lat="48.40922" lon="2.6294">
        <ele>176.74</ele>
        <time>2014-01-04T14:44:58Z</time>
      </trkpt>
      <trkpt lat="48.40906" lon="2.62944">
        <ele>176.9</ele>
        <time>2014-01-04T14:44:34Z</time>
      </trkpt>
      <trkpt lat="48.40907" lon="2.62952">
        <ele>176.76</ele>
        <time>2014-01-04T14:44:29Z</time>
      </trkpt>
      <trkpt lat="48.40909" lon="2.62982">
        <ele>176.87</ele>
        <time>2014-01-04T14:44:13Z</time>
      </trkpt>
      <trkpt lat="48.40913" lon="2.62996">
        <ele>176</ele>
        <time>2014-01-04T14:44:01Z</time>
      </trkpt>
      <trkpt lat="48.40909" lon="2.63">
        <ele>175.83</ele>
        <time>2014-01-04T14:43:56Z</time>
      </trkpt>
      <trkpt lat="48.40907" lon="2.63026">
        <ele>175.43</ele>
        <time>2014-01-04T14:43:42Z</time>
      </trkpt>
      <trkpt lat="48.40892" lon="2.63047">
        <ele>174.93</ele>
        <time>2014-01-04T14:43:33Z</time>
      </trkpt>
      <trkpt lat="48.40886" lon="2.63061">
        <ele>174.54</ele>
        <time>2014-01-04T14:43:28Z</time>
      </trkpt>
      <trkpt lat="48.40855" lon="2.63079">
        <ele>175.93</ele>
        <time>2014-01-04T14:43:15Z</time>
      </trkpt>
      <trkpt lat="48.40812" lon="2.631">
        <ele>177.25</ele>
        <time>2014-01-04T14:42:57Z</time>
      </trkpt>
      <trkpt lat="48.40779" lon="2.63118">
        <ele>176.63</ele>
        <time>2014-01-04T14:42:39Z</time>
      </trkpt>
      <trkpt lat="48.40771" lon="2.63127">
        <ele>176.8</ele>
        <time>2014-01-04T14:42:34Z</time>
      </trkpt>
      <trkpt lat="48.40743" lon="2.63148">
        <ele>175.2</ele>
        <time>2014-01-04T14:42:16Z</time>
      </trkpt>
      <trkpt lat="48.40734" lon="2.63142">
        <ele>174.58</ele>
        <time>2014-01-04T14:41:47Z</time>
      </trkpt>
      <trkpt lat="48.40722" lon="2.63109">
        <ele>172.98</ele>
        <time>2014-01-04T14:41:27Z</time>
      </trkpt>
      <trkpt lat="48.407" lon="2.63105">
        <ele>174.55</ele>
        <time>2014-01-04T14:41:15Z</time>
      </trkpt>
      <trkpt lat="48.40675" lon="2.63129">
        <ele>175.43</ele>
        <time>2014-01-04T14:40:57Z</time>
      </trkpt>
      <trkpt lat="48.40677" lon="2.63137">
        <ele>175.64</ele>
        <time>2014-01-04T14:40:39Z</time>
      </trkpt>
      <trkpt lat="48.40677" lon="2.63137">
        <ele>175.4</ele>
        <time>2014-01-04T14:40:10Z</time>
      </trkpt>
      <trkpt lat="48.40707" lon="2.63154">
        <ele>176</ele>
        <time>2014-01-04T14:39:49Z</time>
      </trkpt>
      <trkpt lat="48.40724" lon="2.63157">
        <ele>175.17</ele>
        <time>2014-01-04T14:39:28Z</time>
      </trkpt>
      <trkpt lat="48.40731" lon="2.63197">
        <ele>175.1</ele>
        <time>2014-01-04T14:39:13Z</time>
      </trkpt>
      <trkpt lat="48.40734" lon="2.63285">
        <ele>176.08</ele>
        <time>2014-01-04T14:38:49Z</time>
      </trkpt>
      <trkpt lat="48.4073" lon="2.63299">
        <ele>175.99</ele>
        <time>2014-01-04T14:38:42Z</time>
      </trkpt>
      <trkpt lat="48.40712" lon="2.63348">
        <ele>176.57</ele>
        <time>2014-01-04T14:38:18Z</time>
      </trkpt>
      <trkpt lat="48.40712" lon="2.63353">
        <ele>176.03</ele>
        <time>2014-01-04T14:38:10Z</time>
      </trkpt>
      <trkpt lat="48.40739" lon="2.63383">
        <ele>177.41</ele>
        <time>2014-01-04T14:37:54Z</time>
      </trkpt>
      <trkpt lat="48.40765" lon="2.63394">
        <ele>176.76</ele>
        <time>2014-01-04T14:37:38Z</time>
      </trkpt>
      <trkpt lat="48.4078" lon="2.63404">
        <ele>174.16</ele>
        <time>2014-01-04T14:37:23Z</time>
      </trkpt>
      <trkpt lat="48.40809" lon="2.63391">
        <ele>173.74</ele>
        <time>2014-01-04T14:37:06Z</time>
      </trkpt>
      <trkpt lat="48.40816" lon="2.63391">
        <ele>131.546875</ele>
      </trkpt>
      <trkpt lat="48.40808" lon="2.63419">
        <ele>131.53125</ele>
      </trkpt>
      <trkpt lat="48.40804" lon="2.63439">
        <ele>131.56640625</ele>
      </trkpt>
      <trkpt lat="48.40798" lon="2.63528">
        <ele>131.89453125</ele>
      </trkpt>
      <trkpt lat="48.40798" lon="2.63556">
        <ele>131.91796875</ele>
      </trkpt>
      <trkpt lat="48.40802" lon="2.63574">
        <ele>131.9453125</ele>
      </trkpt>
      <trkpt lat="48.40797" lon="2.63597">
        <ele>131.515625</ele>
      </trkpt>
      <trkpt lat="48.40795" lon="2.63654">
        <ele>131.203125</ele>
      </trkpt>
      <trkpt lat="48.40798" lon="2.63679">
        <ele>131.375</ele>
      </trkpt>
      <trkpt lat="48.40799" lon="2.6371">
        <ele>131.40625</ele>
      </trkpt>
      <trkpt lat="48.40815" lon="2.63756">
        <ele>132.52734375</ele>
      </trkpt>
      <trkpt lat="48.40837" lon="2.63778">
        <ele>132.85546875</ele>
      </trkpt>
      <trkpt lat="48.40842" lon="2.63819">
        <ele>132.91015625</ele>
      </trkpt>
      <trkpt lat="48.40852" lon="2.63849">
        <ele>175.02</ele>
        <time>2014-01-04T14:36:53Z</time>
      </trkpt>
    </trkseg>
  </trk>
  <trk>
    <name><![CDATA[FB Circuit 2]]></name>
    <trkseg>
      <trkpt lat="48.4087" lon="2.63847">
        <ele>138.4</ele>
        <time>2014-01-04T09:31:00Z</time>
      </trkpt>
      <trkpt lat="48.40902" lon="2.63633">
        <ele>138.66</ele>
        <time>2014-01-04T09:31:14Z</time>
      </trkpt>
      <trkpt lat="48.40911" lon="2.63581">
        <ele>138.98</ele>
        <time>2014-01-04T09:31:28Z</time>
      </trkpt>
      <trkpt lat="48.40918" lon="2.63547">
        <ele>139.3</ele>
        <time>2014-01-04T09:31:38Z</time>
      </trkpt>
      <trkpt lat="48.40924" lon="2.63516">
        <ele>138.74</ele>
        <time>2014-01-04T09:31:44Z</time>
      </trkpt>
      <trkpt lat="48.40932" lon="2.63475">
        <ele>138.86</ele>
        <time>2014-01-04T09:31:51Z</time>
      </trkpt>
      <trkpt lat="48.40958" lon="2.63427">
        <ele>138.88</ele>
        <time>2014-01-04T09:32:01Z</time>
      </trkpt>
      <trkpt lat="48.40965" lon="2.63412">
        <ele>139</ele>
        <time>2014-01-04T09:32:04Z</time>
      </trkpt>
      <trkpt lat="48.40961" lon="2.63331">
        <ele>138.49</ele>
        <time>2014-01-04T09:32:19Z</time>
      </trkpt>
      <trkpt lat="48.40988" lon="2.63299">
        <ele>138.38</ele>
        <time>2014-01-04T09:32:30Z</time>
      </trkpt>
      <trkpt lat="48.41025" lon="2.63289">
        <ele>138.2</ele>
        <time>2014-01-04T09:32:38Z</time>
      </trkpt>
      <trkpt lat="48.41151" lon="2.63264">
        <ele>135.89</ele>
        <time>2014-01-04T09:33:05Z</time>
      </trkpt>
      <trkpt lat="48.41229" lon="2.63247">
        <ele>134.65</ele>
        <time>2014-01-04T09:33:24Z</time>
      </trkpt>
      <trkpt lat="48.4138" lon="2.63221">
        <ele>130.95</ele>
        <time>2014-01-04T09:33:56Z</time>
      </trkpt>
      <trkpt lat="48.41452" lon="2.63212">
        <ele>127.71</ele>
        <time>2014-01-04T09:34:10Z</time>
      </trkpt>
      <trkpt lat="48.41462" lon="2.63209">
        <ele>127.66</ele>
        <time>2014-01-04T09:34:12Z</time>
      </trkpt>
      <trkpt lat="48.41492" lon="2.63207">
        <ele>123.88</ele>
        <time>2014-01-04T09:34:19Z</time>
      </trkpt>
      <trkpt lat="48.41499" lon="2.63204">
        <ele>123.09</ele>
        <time>2014-01-04T09:34:21Z</time>
      </trkpt>
      <trkpt lat="48.41547" lon="2.63192">
        <ele>127.63</ele>
        <time>2014-01-04T09:34:43Z</time>
      </trkpt>
      <trkpt lat="48.41578" lon="2.63189">
        <ele>130.64</ele>
        <time>2014-01-04T09:34:58Z</time>
      </trkpt>
      <trkpt lat="48.41625" lon="2.63179">
        <ele>134.3</ele>
        <time>2014-01-04T09:35:20Z</time>
      </trkpt>
      <trkpt lat="48.41736" lon="2.63159">
        <ele>137.08</ele>
        <time>2014-01-04T09:35:52Z</time>
      </trkpt>
      <trkpt lat="48.41865" lon="2.63135">
        <ele>133.63</ele>
        <time>2014-01-04T09:36:21Z</time>
      </trkpt>
      <trkpt lat="48.41924" lon="2.63116">
        <ele>130.29</ele>
        <time>2014-01-04T09:36:31Z</time>
      </trkpt>
      <trkpt lat="48.41945" lon="2.63114">
        <ele>125.82</ele>
        <time>2014-01-04T09:36:34Z</time>
      </trkpt>
      <trkpt lat="48.41985" lon="2.6311">
        <ele>122.21</ele>
        <time>2014-01-04T09:36:38Z</time>
      </trkpt>
      <trkpt lat="48.42003" lon="2.63108">
        <ele>118.4</ele>
        <time>2014-01-04T09:36:40Z</time>
      </trkpt>
      <trkpt lat="48.42027" lon="2.63103">
        <ele>114.96</ele>
        <time>2014-01-04T09:36:43Z</time>
      </trkpt>
      <trkpt lat="48.42071" lon="2.63096">
        <ele>109.63</ele>
        <time>2014-01-04T09:36:50Z</time>
      </trkpt>
      <trkpt lat="48.42187" lon="2.63075">
        <ele>105.74</ele>
        <time>2014-01-04T09:37:14Z</time>
      </trkpt>
      <trkpt lat="48.42236" lon="2.63067">
        <ele>102.72</ele>
        <time>2014-01-04T09:37:27Z</time>
      </trkpt>
      <trkpt lat="48.42265" lon="2.63062">
        <ele>104.76</ele>
        <time>2014-01-04T09:37:41Z</time>
      </trkpt>
      <trkpt lat="48.42299" lon="2.63059">
        <ele>108.5</ele>
        <time>2014-01-04T09:37:58Z</time>
      </trkpt>
      <trkpt lat="48.42356" lon="2.63049">
        <ele>112.16</ele>
        <time>2014-01-04T09:38:23Z</time>
      </trkpt>
      <trkpt lat="48.42385" lon="2.63042">
        <ele>115.81</ele>
        <time>2014-01-04T09:38:39Z</time>
      </trkpt>
      <trkpt lat="48.42414" lon="2.63042">
        <ele>119.37</ele>
        <time>2014-01-04T09:38:55Z</time>
      </trkpt>
      <trkpt lat="48.42432" lon="2.63038">
        <ele>122.39</ele>
        <time>2014-01-04T09:39:07Z</time>
      </trkpt>
      <trkpt lat="48.42456" lon="2.63032">
        <ele>127.2</ele>
        <time>2014-01-04T09:39:23Z</time>
      </trkpt>
      <trkpt lat="48.42482" lon="2.63027">
        <ele>130.67</ele>
        <time>2014-01-04T09:39:40Z</time>
      </trkpt>
      <trkpt lat="48.42526" lon="2.63019">
        <ele>134.95</ele>
        <time>2014-01-04T09:40:03Z</time>
      </trkpt>
      <trkpt lat="48.42588" lon="2.63004">
        <ele>137.7</ele>
        <time>2014-01-04T09:40:27Z</time>
      </trkpt>
      <trkpt lat="48.42704" lon="2.62974">
        <ele>138.46</ele>
        <time>2014-01-04T09:40:55Z</time>
      </trkpt>
      <trkpt lat="48.4279" lon="2.62971">
        <ele>140.1</ele>
        <time>2014-01-04T09:41:16Z</time>
      </trkpt>
      <trkpt lat="48.42801" lon="2.62999">
        <ele>140.54</ele>
        <time>2014-01-04T09:41:22Z</time>
      </trkpt>
      <trkpt lat="48.42845" lon="2.63101">
        <ele>140.6</ele>
        <time>2014-01-04T09:41:44Z</time>
      </trkpt>
      <trkpt lat="48.42891" lon="2.63218">
        <ele>141.17</ele>
        <time>2014-01-04T09:42:06Z</time>
      </trkpt>
      <trkpt lat="48.42914" lon="2.63269">
        <ele>141.32</ele>
        <time>2014-01-04T09:42:14Z</time>
      </trkpt>
      <trkpt lat="48.42929" lon="2.63319">
        <ele>141.01</ele>
        <time>2014-01-04T09:42:22Z</time>
      </trkpt>
      <trkpt lat="48.4298" lon="2.63463">
        <ele>141.14</ele>
        <time>2014-01-04T09:42:48Z</time>
      </trkpt>
      <trkpt lat="48.43027" lon="2.63557">
        <ele>140.33</ele>
        <time>2014-01-04T09:43:06Z</time>
      </trkpt>
      <trkpt lat="48.43033" lon="2.63555">
        <ele>144.86</ele>
        <time>2014-01-04T10:05:06Z</time>
      </trkpt>
      <trkpt lat="48.43048" lon="2.63501">
        <ele>145.34</ele>
        <time>2014-01-04T10:05:18Z</time>
      </trkpt>
      <trkpt lat="48.43048" lon="2.63444">
        <ele>145.46</ele>
        <time>2014-01-04T10:05:29Z</time>
      </trkpt>
      <trkpt lat="48.43056" lon="2.63414">
        <ele>145.56</ele>
        <time>2014-01-04T10:05:35Z</time>
      </trkpt>
      <trkpt lat="48.43061" lon="2.63396">
        <ele>145.49</ele>
        <time>2014-01-04T10:05:39Z</time>
      </trkpt>
      <trkpt lat="48.4309" lon="2.63311">
        <ele>145.73</ele>
        <time>2014-01-04T10:05:58Z</time>
      </trkpt>
      <trkpt lat="48.43097" lon="2.63279">
        <ele>145.46</ele>
        <time>2014-01-04T10:06:17Z</time>
      </trkpt>
      <trkpt lat="48.43099" lon="2.63268">
        <ele>141.29</ele>
        <time>2014-01-04T10:06:40Z</time>
      </trkpt>
      <trkpt lat="48.43115" lon="2.63246">
        <ele>137.78</ele>
        <time>2014-01-04T10:06:46Z</time>
      </trkpt>
      <trkpt lat="48.43131" lon="2.63229">
        <ele>133.25</ele>
        <time>2014-01-04T10:06:50Z</time>
      </trkpt>
      <trkpt lat="48.43147" lon="2.63217">
        <ele>129.72</ele>
        <time>2014-01-04T10:06:54Z</time>
      </trkpt>
      <trkpt lat="48.4318" lon="2.63182">
        <ele>125.37</ele>
        <time>2014-01-04T10:07:04Z</time>
      </trkpt>
      <trkpt lat="48.43187" lon="2.63175">
        <ele>124.76</ele>
        <time>2014-01-04T10:07:10Z</time>
      </trkpt>
      <trkpt lat="48.43191" lon="2.63177">
        <ele>124.21</ele>
        <time>2014-01-04T10:07:35Z</time>
      </trkpt>
      <trkpt lat="48.43189" lon="2.63166">
        <ele>124.26</ele>
        <time>2014-01-04T10:08:18Z</time>
      </trkpt>
      <trkpt lat="48.43188" lon="2.63161">
        <ele>124</ele>
        <time>2014-01-04T10:09:21Z</time>
      </trkpt>
      <trkpt lat="48.43223" lon="2.63113">
        <ele>118.29</ele>
        <time>2014-01-04T10:09:39Z</time>
      </trkpt>
      <trkpt lat="48.43249" lon="2.63018">
        <ele>116.38</ele>
        <time>2014-01-04T10:09:55Z</time>
      </trkpt>
      <trkpt lat="48.43258" lon="2.62982">
        <ele>115.17</ele>
        <time>2014-01-04T10:10:01Z</time>
      </trkpt>
      <trkpt lat="48.4327" lon="2.62939">
        <ele>114.02</ele>
        <time>2014-01-04T10:10:08Z</time>
      </trkpt>
      <trkpt lat="48.43275" lon="2.62912">
        <ele>113.95</ele>
        <time>2014-01-04T10:10:12Z</time>
      </trkpt>
      <trkpt lat="48.43277" lon="2.62861">
        <ele>112.39</ele>
        <time>2014-01-04T10:10:23Z</time>
      </trkpt>
      <trkpt lat="48.43298" lon="2.62824">
        <ele>109</ele>
        <time>2014-01-04T10:10:35Z</time>
      </trkpt>
      <trkpt lat="48.43315" lon="2.6282">
        <ele>107.18</ele>
        <time>2014-01-04T10:10:42Z</time>
      </trkpt>
      <trkpt lat="48.43352" lon="2.62795">
        <ele>104.03</ele>
        <time>2014-01-04T10:10:58Z</time>
      </trkpt>
      <trkpt lat="48.434" lon="2.62796">
        <ele>102.26</ele>
        <time>2014-01-04T10:11:13Z</time>
      </trkpt>
      <trkpt lat="48.43399" lon="2.62797">
        <ele>102.3</ele>
        <time>2014-01-04T10:11:19Z</time>
      </trkpt>
      <trkpt lat="48.43416" lon="2.62782">
        <ele>102.17</ele>
        <time>2014-01-04T10:11:56Z</time>
      </trkpt>
      <trkpt lat="48.43455" lon="2.62769">
        <ele>101.27</ele>
        <time>2014-01-04T10:12:08Z</time>
      </trkpt>
      <trkpt lat="48.43458" lon="2.62731">
        <ele>101.52</ele>
        <time>2014-01-04T10:12:24Z</time>
      </trkpt>
      <trkpt lat="48.43428" lon="2.62689">
        <ele>101.97</ele>
        <time>2014-01-04T10:12:45Z</time>
      </trkpt>
      <trkpt lat="48.43386" lon="2.62704">
        <ele>105.04</ele>
        <time>2014-01-04T10:13:03Z</time>
      </trkpt>
      <trkpt lat="48.4338" lon="2.6271">
        <ele>105.1</ele>
        <time>2014-01-04T10:13:05Z</time>
      </trkpt>
      <trkpt lat="48.43351" lon="2.6271">
        <ele>107.73</ele>
        <time>2014-01-04T10:13:23Z</time>
      </trkpt>
      <trkpt lat="48.43344" lon="2.6269">
        <ele>109.65</ele>
        <time>2014-01-04T10:13:34Z</time>
      </trkpt>
      <trkpt lat="48.43334" lon="2.62676">
        <ele>111.18</ele>
        <time>2014-01-04T10:13:42Z</time>
      </trkpt>
      <trkpt lat="48.4333" lon="2.62635">
        <ele>114.36</ele>
        <time>2014-01-04T10:13:57Z</time>
      </trkpt>
      <trkpt lat="48.4333" lon="2.62632">
        <ele>114.58</ele>
        <time>2014-01-04T10:13:58Z</time>
      </trkpt>
      <trkpt lat="48.43332" lon="2.62589">
        <ele>117.73</ele>
        <time>2014-01-04T10:14:14Z</time>
      </trkpt>
      <trkpt lat="48.43334" lon="2.6258">
        <ele>119.18</ele>
        <time>2014-01-04T10:14:18Z</time>
      </trkpt>
      <trkpt lat="48.43314" lon="2.62558">
        <ele>123.72</ele>
        <time>2014-01-04T10:14:39Z</time>
      </trkpt>
      <trkpt lat="48.433" lon="2.6255">
        <ele>127.12</ele>
        <time>2014-01-04T10:14:50Z</time>
      </trkpt>
      <trkpt lat="48.43289" lon="2.62538">
        <ele>130.54</ele>
        <time>2014-01-04T10:14:59Z</time>
      </trkpt>
      <trkpt lat="48.4328" lon="2.62529">
        <ele>133.95</ele>
        <time>2014-01-04T10:15:06Z</time>
      </trkpt>
      <trkpt lat="48.43278" lon="2.62514">
        <ele>137.14</ele>
        <time>2014-01-04T10:15:26Z</time>
      </trkpt>
      <trkpt lat="48.4328" lon="2.62509">
        <ele>137.24</ele>
        <time>2014-01-04T10:15:37Z</time>
      </trkpt>
      <trkpt lat="48.43277" lon="2.6251">
        <ele>137.49</ele>
        <time>2014-01-04T10:16:33Z</time>
      </trkpt>
      <trkpt lat="48.43274" lon="2.62497">
        <ele>136.87</ele>
        <time>2014-01-04T10:17:08Z</time>
      </trkpt>
      <trkpt lat="48.43257" lon="2.62477">
        <ele>130.85</ele>
        <time>2014-01-04T10:17:18Z</time>
      </trkpt>
      <trkpt lat="48.43249" lon="2.62416">
        <ele>128.56</ele>
        <time>2014-01-04T10:17:27Z</time>
      </trkpt>
      <trkpt lat="48.43261" lon="2.62366">
        <ele>130.99</ele>
        <time>2014-01-04T10:17:42Z</time>
      </trkpt>
      <trkpt lat="48.43275" lon="2.62347">
        <ele>135.26</ele>
        <time>2014-01-04T10:17:56Z</time>
      </trkpt>
      <trkpt lat="48.43277" lon="2.62294">
        <ele>139.37</ele>
        <time>2014-01-04T10:18:18Z</time>
      </trkpt>
      <trkpt lat="48.43277" lon="2.62272">
        <ele>143.16</ele>
        <time>2014-01-04T10:18:28Z</time>
      </trkpt>
      <trkpt lat="48.43293" lon="2.62237">
        <ele>144.76</ele>
        <time>2014-01-04T10:18:45Z</time>
      </trkpt>
      <trkpt lat="48.43299" lon="2.62253">
        <ele>144.72</ele>
        <time>2014-01-04T10:18:57Z</time>
      </trkpt>
      <trkpt lat="48.43298" lon="2.62275">
        <ele>142.41</ele>
        <time>2014-01-04T10:19:14Z</time>
      </trkpt>
      <trkpt lat="48.43288" lon="2.62295">
        <ele>138.68</ele>
        <time>2014-01-04T10:19:22Z</time>
      </trkpt>
      <trkpt lat="48.43281" lon="2.62293">
        <ele>138.52</ele>
        <time>2014-01-04T10:19:30Z</time>
      </trkpt>
      <trkpt lat="48.43279" lon="2.6227">
        <ele>141.83</ele>
        <time>2014-01-04T10:19:40Z</time>
      </trkpt>
      <trkpt lat="48.43279" lon="2.62264">
        <ele>143.28</ele>
        <time>2014-01-04T10:19:44Z</time>
      </trkpt>
      <trkpt lat="48.43296" lon="2.62209">
        <ele>145.26</ele>
        <time>2014-01-04T10:20:09Z</time>
      </trkpt>
      <trkpt lat="48.43298" lon="2.62184">
        <ele>145.82</ele>
        <time>2014-01-04T10:20:26Z</time>
      </trkpt>
      <trkpt lat="48.4331" lon="2.62155">
        <ele>146.63</ele>
        <time>2014-01-04T10:20:40Z</time>
      </trkpt>
      <trkpt lat="48.43319" lon="2.62119">
        <ele>146.54</ele>
        <time>2014-01-04T10:20:53Z</time>
      </trkpt>
      <trkpt lat="48.43329" lon="2.62082">
        <ele>145.86</ele>
        <time>2014-01-04T10:21:18Z</time>
      </trkpt>
      <trkpt lat="48.43337" lon="2.62079">
        <ele>146.25</ele>
        <time>2014-01-04T10:22:30Z</time>
      </trkpt>
      <trkpt lat="48.43337" lon="2.62073">
        <ele>146.57</ele>
        <time>2014-01-04T10:23:27Z</time>
      </trkpt>
      <trkpt lat="48.43347" lon="2.62004">
        <ele>147.03</ele>
        <time>2014-01-04T10:23:52Z</time>
      </trkpt>
      <trkpt lat="48.43348" lon="2.61957">
        <ele>148.03</ele>
        <time>2014-01-04T10:24:07Z</time>
      </trkpt>
      <trkpt lat="48.43354" lon="2.6194">
        <ele>148.46</ele>
        <time>2014-01-04T10:24:17Z</time>
      </trkpt>
      <trkpt lat="48.4336" lon="2.61891">
        <ele>148.34</ele>
        <time>2014-01-04T10:24:41Z</time>
      </trkpt>
      <trkpt lat="48.43363" lon="2.61848">
        <ele>147.47</ele>
        <time>2014-01-04T10:25:00Z</time>
      </trkpt>
      <trkpt lat="48.43362" lon="2.61818">
        <ele>147.96</ele>
        <time>2014-01-04T10:25:31Z</time>
      </trkpt>
      <trkpt lat="48.43364" lon="2.61784">
        <ele>147.85</ele>
        <time>2014-01-04T10:26:30Z</time>
      </trkpt>
      <trkpt lat="48.43374" lon="2.61739">
        <ele>148.4</ele>
        <time>2014-01-04T10:26:49Z</time>
      </trkpt>
      <trkpt lat="48.43383" lon="2.61709">
        <ele>147.15</ele>
        <time>2014-01-04T10:27:07Z</time>
      </trkpt>
      <trkpt lat="48.43392" lon="2.61693">
        <ele>146.85</ele>
        <time>2014-01-04T10:27:15Z</time>
      </trkpt>
      <trkpt lat="48.43403" lon="2.61647">
        <ele>147.28</ele>
        <time>2014-01-04T10:27:33Z</time>
      </trkpt>
      <trkpt lat="48.43404" lon="2.61615">
        <ele>147.98</ele>
        <time>2014-01-04T10:28:03Z</time>
      </trkpt>
      <trkpt lat="48.4341" lon="2.61569">
        <ele>148.05</ele>
        <time>2014-01-04T10:28:33Z</time>
      </trkpt>
      <trkpt lat="48.4342" lon="2.61543">
        <ele>147.63</ele>
        <time>2014-01-04T10:28:46Z</time>
      </trkpt>
      <trkpt lat="48.43421" lon="2.61531">
        <ele>147.76</ele>
        <time>2014-01-04T10:28:52Z</time>
      </trkpt>
      <trkpt lat="48.43421" lon="2.61521">
        <ele>147.8</ele>
        <time>2014-01-04T10:28:57Z</time>
      </trkpt>
      <trkpt lat="48.43433" lon="2.61496">
        <ele>147.78</ele>
        <time>2014-01-04T10:29:11Z</time>
      </trkpt>
      <trkpt lat="48.4344" lon="2.61487">
        <ele>145.64</ele>
        <time>2014-01-04T10:29:47Z</time>
      </trkpt>
      <trkpt lat="48.43452" lon="2.61481">
        <ele>141.02</ele>
        <time>2014-01-04T10:30:24Z</time>
      </trkpt>
      <trkpt lat="48.43469" lon="2.61479">
        <ele>135.32</ele>
        <time>2014-01-04T10:31:13Z</time>
      </trkpt>
      <trkpt lat="48.4347" lon="2.61479">
        <ele>134.86</ele>
        <time>2014-01-04T10:31:14Z</time>
      </trkpt>
      <trkpt lat="48.4348" lon="2.61482">
        <ele>131.24</ele>
        <time>2014-01-04T10:31:20Z</time>
      </trkpt>
      <trkpt lat="48.4349" lon="2.61485">
        <ele>127.46</ele>
        <time>2014-01-04T10:31:26Z</time>
      </trkpt>
      <trkpt lat="48.43489" lon="2.615">
        <ele>124.55</ele>
        <time>2014-01-04T10:31:43Z</time>
      </trkpt>
      <trkpt lat="48.43491" lon="2.61511">
        <ele>121.38</ele>
        <time>2014-01-04T10:31:59Z</time>
      </trkpt>
      <trkpt lat="48.43491" lon="2.61523">
        <ele>117.54</ele>
        <time>2014-01-04T10:32:04Z</time>
      </trkpt>
      <trkpt lat="48.43493" lon="2.61528">
        <ele>116.07</ele>
        <time>2014-01-04T10:32:21Z</time>
      </trkpt>
      <trkpt lat="48.43498" lon="2.6153">
        <ele>115.89</ele>
        <time>2014-01-04T10:32:56Z</time>
      </trkpt>
      <trkpt lat="48.43499" lon="2.61525">
        <ele>115.75</ele>
        <time>2014-01-04T10:33:42Z</time>
      </trkpt>
      <trkpt lat="48.43532" lon="2.61544">
        <ele>110.05</ele>
        <time>2014-01-04T10:33:54Z</time>
      </trkpt>
      <trkpt lat="48.4354" lon="2.61569">
        <ele>106.86</ele>
        <time>2014-01-04T10:34:01Z</time>
      </trkpt>
      <trkpt lat="48.43555" lon="2.61594">
        <ele>103.37</ele>
        <time>2014-01-04T10:34:09Z</time>
      </trkpt>
      <trkpt lat="48.43572" lon="2.61602">
        <ele>103.18</ele>
        <time>2014-01-04T10:34:13Z</time>
      </trkpt>
      <trkpt lat="48.43615" lon="2.61646">
        <ele>99.6</ele>
        <time>2014-01-04T10:34:25Z</time>
      </trkpt>
      <trkpt lat="48.43638" lon="2.61674">
        <ele>99.53</ele>
        <time>2014-01-04T10:34:32Z</time>
      </trkpt>
      <trkpt lat="48.43666" lon="2.61707">
        <ele>99.36</ele>
        <time>2014-01-04T10:34:50Z</time>
      </trkpt>
      <trkpt lat="48.43709" lon="2.61743">
        <ele>98.85</ele>
        <time>2014-01-04T10:35:06Z</time>
      </trkpt>
      <trkpt lat="48.43793" lon="2.61816">
        <ele>100.07</ele>
        <time>2014-01-04T10:35:34Z</time>
      </trkpt>
      <trkpt lat="48.43884" lon="2.61908">
        <ele>103.06</ele>
        <time>2014-01-04T10:36:03Z</time>
      </trkpt>
      <trkpt lat="48.43917" lon="2.61909">
        <ele>105.09</ele>
        <time>2014-01-04T10:36:15Z</time>
      </trkpt>
      <trkpt lat="48.43962" lon="2.61951">
        <ele>108.35</ele>
        <time>2014-01-04T10:36:34Z</time>
      </trkpt>
      <trkpt lat="48.43989" lon="2.61995">
        <ele>112.13</ele>
        <time>2014-01-04T10:36:51Z</time>
      </trkpt>
      <trkpt lat="48.44009" lon="2.62033">
        <ele>109.77</ele>
        <time>2014-01-04T10:37:12Z</time>
      </trkpt>
      <trkpt lat="48.4401" lon="2.62033">
        <ele>109.54</ele>
        <time>2014-01-04T10:37:13Z</time>
      </trkpt>
      <trkpt lat="48.44039" lon="2.6205">
        <ele>103.9</ele>
        <time>2014-01-04T10:37:40Z</time>
      </trkpt>
      <trkpt lat="48.44062" lon="2.62104">
        <ele>100.86</ele>
        <time>2014-01-04T10:37:50Z</time>
      </trkpt>
      <trkpt lat="48.44076" lon="2.62131">
        <ele>100.55</ele>
        <time>2014-01-04T10:37:56Z</time>
      </trkpt>
      <trkpt lat="48.44124" lon="2.62216">
        <ele>97.52</ele>
        <time>2014-01-04T10:38:15Z</time>
      </trkpt>
      <trkpt lat="48.44124" lon="2.62248">
        <ele>97.82</ele>
        <time>2014-01-04T10:38:23Z</time>
      </trkpt>
      <trkpt lat="48.44118" lon="2.623">
        <ele>98.28</ele>
        <time>2014-01-04T10:38:36Z</time>
      </trkpt>
      <trkpt lat="48.44104" lon="2.62409">
        <ele>98.59</ele>
        <time>2014-01-04T10:38:56Z</time>
      </trkpt>
      <trkpt lat="48.4407" lon="2.62436">
        <ele>98.7</ele>
        <time>2014-01-04T10:39:09Z</time>
      </trkpt>
      <trkpt lat="48.44037" lon="2.62439">
        <ele>98.8</ele>
        <time>2014-01-04T10:39:29Z</time>
      </trkpt>
      <trkpt lat="48.43964" lon="2.62437">
        <ele>99.45</ele>
        <time>2014-01-04T10:39:59Z</time>
      </trkpt>
      <trkpt lat="48.43919" lon="2.62442">
        <ele>100.4</ele>
        <time>2014-01-04T10:40:16Z</time>
      </trkpt>
      <trkpt lat="48.43858" lon="2.62434">
        <ele>101.26</ele>
        <time>2014-01-04T10:40:34Z</time>
      </trkpt>
      <trkpt lat="48.43813" lon="2.62424">
        <ele>102.06</ele>
        <time>2014-01-04T10:40:49Z</time>
      </trkpt>
      <trkpt lat="48.43734" lon="2.62452">
        <ele>103.04</ele>
        <time>2014-01-04T10:41:13Z</time>
      </trkpt>
      <trkpt lat="48.43708" lon="2.62472">
        <ele>102.13</ele>
        <time>2014-01-04T10:41:26Z</time>
      </trkpt>
      <trkpt lat="48.43697" lon="2.62493">
        <ele>101.73</ele>
        <time>2014-01-04T10:41:35Z</time>
      </trkpt>
      <trkpt lat="48.43688" lon="2.62504">
        <ele>102</ele>
        <time>2014-01-04T10:41:39Z</time>
      </trkpt>
      <trkpt lat="48.43667" lon="2.62583">
        <ele>103.13</ele>
        <time>2014-01-04T10:41:57Z</time>
      </trkpt>
      <trkpt lat="48.43634" lon="2.62643">
        <ele>102.85</ele>
        <time>2014-01-04T10:42:14Z</time>
      </trkpt>
      <trkpt lat="48.43589" lon="2.62694">
        <ele>103.6</ele>
        <time>2014-01-04T10:42:31Z</time>
      </trkpt>
      <trkpt lat="48.43559" lon="2.62783">
        <ele>105.11</ele>
        <time>2014-01-04T10:42:51Z</time>
      </trkpt>
      <trkpt lat="48.43535" lon="2.62849">
        <ele>105.74</ele>
        <time>2014-01-04T10:43:12Z</time>
      </trkpt>
      <trkpt lat="48.43499" lon="2.62924">
        <ele>108.8</ele>
        <time>2014-01-04T10:43:40Z</time>
      </trkpt>
      <trkpt lat="48.43479" lon="2.62958">
        <ele>112.26</ele>
        <time>2014-01-04T10:43:55Z</time>
      </trkpt>
      <trkpt lat="48.4347" lon="2.63">
        <ele>115.6</ele>
        <time>2014-01-04T10:44:11Z</time>
      </trkpt>
      <trkpt lat="48.43504" lon="2.63042">
        <ele>117.14</ele>
        <time>2014-01-04T10:44:29Z</time>
      </trkpt>
      <trkpt lat="48.43517" lon="2.63086">
        <ele>115.36</ele>
        <time>2014-01-04T10:44:36Z</time>
      </trkpt>
      <trkpt lat="48.43505" lon="2.63182">
        <ele>115.42</ele>
        <time>2014-01-04T10:45:00Z</time>
      </trkpt>
      <trkpt lat="48.43478" lon="2.63265">
        <ele>115.71</ele>
        <time>2014-01-04T10:45:24Z</time>
      </trkpt>
      <trkpt lat="48.43445" lon="2.63349">
        <ele>117.85</ele>
        <time>2014-01-04T10:45:46Z</time>
      </trkpt>
      <trkpt lat="48.43437" lon="2.63375">
        <ele>118.92</ele>
        <time>2014-01-04T10:45:55Z</time>
      </trkpt>
      <trkpt lat="48.43387" lon="2.63414">
        <ele>119.93</ele>
        <time>2014-01-04T10:46:13Z</time>
      </trkpt>
      <trkpt lat="48.43347" lon="2.63479">
        <ele>123.8</ele>
        <time>2014-01-04T10:46:34Z</time>
      </trkpt>
      <trkpt lat="48.43307" lon="2.63488">
        <ele>127.32</ele>
        <time>2014-01-04T10:46:54Z</time>
      </trkpt>
      <trkpt lat="48.43292" lon="2.63485">
        <ele>130.35</ele>
        <time>2014-01-04T10:47:07Z</time>
      </trkpt>
      <trkpt lat="48.4328" lon="2.63482">
        <ele>131.52</ele>
        <time>2014-01-04T10:47:16Z</time>
      </trkpt>
      <trkpt lat="48.43254" lon="2.63475">
        <ele>136.33</ele>
        <time>2014-01-04T10:47:38Z</time>
      </trkpt>
      <trkpt lat="48.43245" lon="2.63462">
        <ele>139.5</ele>
        <time>2014-01-04T10:47:47Z</time>
      </trkpt>
      <trkpt lat="48.43236" lon="2.63468">
        <ele>139.47</ele>
        <time>2014-01-04T10:47:53Z</time>
      </trkpt>
      <trkpt lat="48.43215" lon="2.6346">
        <ele>143.67</ele>
        <time>2014-01-04T10:48:10Z</time>
      </trkpt>
      <trkpt lat="48.43211" lon="2.63446">
        <ele>147.27</ele>
        <time>2014-01-04T10:48:30Z</time>
      </trkpt>
      <trkpt lat="48.4321" lon="2.6343">
        <ele>151.01</ele>
        <time>2014-01-04T10:48:51Z</time>
      </trkpt>
      <trkpt lat="48.43215" lon="2.63422">
        <ele>152.24</ele>
        <time>2014-01-04T10:49:38Z</time>
      </trkpt>
      <trkpt lat="48.43214" lon="2.63411">
        <ele>152.58</ele>
        <time>2014-01-04T10:51:02Z</time>
      </trkpt>
      <trkpt lat="48.43181" lon="2.63399">
        <ele>151.7</ele>
        <time>2014-01-04T10:51:19Z</time>
      </trkpt>
      <trkpt lat="48.43162" lon="2.63408">
        <ele>152.63</ele>
        <time>2014-01-04T10:51:41Z</time>
      </trkpt>
      <trkpt lat="48.43149" lon="2.63434">
        <ele>152.9</ele>
        <time>2014-01-04T10:51:52Z</time>
      </trkpt>
      <trkpt lat="48.43136" lon="2.63458">
        <ele>152.39</ele>
        <time>2014-01-04T10:51:59Z</time>
      </trkpt>
      <trkpt lat="48.43147" lon="2.63511">
        <ele>151.67</ele>
        <time>2014-01-04T10:52:12Z</time>
      </trkpt>
      <trkpt lat="48.43134" lon="2.63547">
        <ele>152.31</ele>
        <time>2014-01-04T10:52:32Z</time>
      </trkpt>
      <trkpt lat="48.43134" lon="2.63556">
        <ele>141.43</ele>
        <time>2014-01-04T09:43:56Z</time>
      </trkpt>
      <trkpt lat="48.43145" lon="2.63592">
        <ele>139.12</ele>
        <time>2014-01-04T09:44:05Z</time>
      </trkpt>
      <trkpt lat="48.43167" lon="2.63612">
        <ele>135.99</ele>
        <time>2014-01-04T09:44:24Z</time>
      </trkpt>
      <trkpt lat="48.43179" lon="2.63633">
        <ele>132.76</ele>
        <time>2014-01-04T09:44:37Z</time>
      </trkpt>
      <trkpt lat="48.43183" lon="2.63636">
        <ele>131.43</ele>
        <time>2014-01-04T09:45:01Z</time>
      </trkpt>
      <trkpt lat="48.43216" lon="2.63656">
        <ele>127.08</ele>
        <time>2014-01-04T09:45:12Z</time>
      </trkpt>
      <trkpt lat="48.4324" lon="2.63673">
        <ele>123.96</ele>
        <time>2014-01-04T09:45:23Z</time>
      </trkpt>
      <trkpt lat="48.43249" lon="2.63676">
        <ele>121.84</ele>
        <time>2014-01-04T09:45:34Z</time>
      </trkpt>
      <trkpt lat="48.43275" lon="2.6368">
        <ele>118.09</ele>
        <time>2014-01-04T09:45:47Z</time>
      </trkpt>
      <trkpt lat="48.43297" lon="2.63699">
        <ele>116.29</ele>
        <time>2014-01-04T09:45:54Z</time>
      </trkpt>
      <trkpt lat="48.43335" lon="2.63766">
        <ele>112.14</ele>
        <time>2014-01-04T09:46:07Z</time>
      </trkpt>
      <trkpt lat="48.43325" lon="2.63804">
        <ele>108.7</ele>
        <time>2014-01-04T09:46:15Z</time>
      </trkpt>
      <trkpt lat="48.43315" lon="2.63844">
        <ele>107.09</ele>
        <time>2014-01-04T09:46:23Z</time>
      </trkpt>
      <trkpt lat="48.43289" lon="2.63899">
        <ele>103.99</ele>
        <time>2014-01-04T09:46:34Z</time>
      </trkpt>
      <trkpt lat="48.43277" lon="2.6394">
        <ele>102.67</ele>
        <time>2014-01-04T09:46:43Z</time>
      </trkpt>
      <trkpt lat="48.43286" lon="2.63961">
        <ele>101.84</ele>
        <time>2014-01-04T09:47:04Z</time>
      </trkpt>
      <trkpt lat="48.43296" lon="2.63974">
        <ele>102.19</ele>
        <time>2014-01-04T09:47:25Z</time>
      </trkpt>
      <trkpt lat="48.4328" lon="2.63995">
        <ele>101.48</ele>
        <time>2014-01-04T09:47:40Z</time>
      </trkpt>
      <trkpt lat="48.433" lon="2.64051">
        <ele>101.12</ele>
        <time>2014-01-04T09:47:59Z</time>
      </trkpt>
      <trkpt lat="48.43291" lon="2.64181">
        <ele>101.87</ele>
        <time>2014-01-04T09:48:13Z</time>
      </trkpt>
      <trkpt lat="48.43302" lon="2.64192">
        <ele>100.99</ele>
        <time>2014-01-04T09:48:25Z</time>
      </trkpt>
      <trkpt lat="48.43329" lon="2.64174">
        <ele>100.9</ele>
        <time>2014-01-04T09:48:26Z</time>
      </trkpt>
      <trkpt lat="48.43363" lon="2.64153">
        <ele>99.82</ele>
        <time>2014-01-04T09:48:46Z</time>
      </trkpt>
      <trkpt lat="48.43443" lon="2.64157">
        <ele>103.18</ele>
        <time>2014-01-04T09:49:09Z</time>
      </trkpt>
      <trkpt lat="48.43495" lon="2.6415">
        <ele>108.27</ele>
        <time>2014-01-04T09:49:32Z</time>
      </trkpt>
      <trkpt lat="48.43496" lon="2.6415">
        <ele>108.66</ele>
        <time>2014-01-04T09:49:33Z</time>
      </trkpt>
      <trkpt lat="48.43513" lon="2.64158">
        <ele>110.52</ele>
        <time>2014-01-04T09:49:41Z</time>
      </trkpt>
      <trkpt lat="48.43529" lon="2.64209">
        <ele>110.6</ele>
        <time>2014-01-04T09:49:55Z</time>
      </trkpt>
      <trkpt lat="48.43549" lon="2.64262">
        <ele>109.82</ele>
        <time>2014-01-04T09:50:07Z</time>
      </trkpt>
      <trkpt lat="48.43581" lon="2.64296">
        <ele>106.6</ele>
        <time>2014-01-04T09:50:22Z</time>
      </trkpt>
      <trkpt lat="48.43598" lon="2.64331">
        <ele>104.07</ele>
        <time>2014-01-04T09:50:31Z</time>
      </trkpt>
      <trkpt lat="48.43615" lon="2.64374">
        <ele>102.37</ele>
        <time>2014-01-04T09:50:38Z</time>
      </trkpt>
      <trkpt lat="48.43626" lon="2.6441">
        <ele>100.18</ele>
        <time>2014-01-04T09:50:47Z</time>
      </trkpt>
      <trkpt lat="48.43626" lon="2.64415">
        <ele>100.05</ele>
        <time>2014-01-04T09:51:09Z</time>
      </trkpt>
      <trkpt lat="48.43593" lon="2.64472">
        <ele>99.86</ele>
        <time>2014-01-04T09:51:54Z</time>
      </trkpt>
      <trkpt lat="48.43555" lon="2.64571">
        <ele>100.03</ele>
        <time>2014-01-04T09:52:15Z</time>
      </trkpt>
      <trkpt lat="48.4353" lon="2.64588">
        <ele>100.09</ele>
        <time>2014-01-04T09:52:22Z</time>
      </trkpt>
      <trkpt lat="48.43486" lon="2.64619">
        <ele>99.41</ele>
        <time>2014-01-04T09:52:33Z</time>
      </trkpt>
      <trkpt lat="48.43453" lon="2.64637">
        <ele>99.89</ele>
        <time>2014-01-04T09:52:41Z</time>
      </trkpt>
      <trkpt lat="48.43379" lon="2.64673">
        <ele>99.98</ele>
        <time>2014-01-04T09:53:02Z</time>
      </trkpt>
      <trkpt lat="48.43376" lon="2.64635">
        <ele>100.08</ele>
        <time>2014-01-04T09:53:08Z</time>
      </trkpt>
      <trkpt lat="48.4337" lon="2.64418">
        <ele>99.75</ele>
        <time>2014-01-04T09:53:41Z</time>
      </trkpt>
      <trkpt lat="48.43305" lon="2.64485">
        <ele>100.31</ele>
        <time>2014-01-04T09:56:36Z</time>
      </trkpt>
      <trkpt lat="48.43243" lon="2.64542">
        <ele>101.64</ele>
        <time>2014-01-04T09:56:52Z</time>
      </trkpt>
      <trkpt lat="48.43235" lon="2.64592">
        <ele>102.62</ele>
        <time>2014-01-04T09:57:00Z</time>
      </trkpt>
      <trkpt lat="48.43202" lon="2.64695">
        <ele>103.04</ele>
        <time>2014-01-04T09:57:18Z</time>
      </trkpt>
      <trkpt lat="48.43191" lon="2.64725">
        <ele>104.66</ele>
        <time>2014-01-04T09:57:27Z</time>
      </trkpt>
      <trkpt lat="48.43189" lon="2.64731">
        <ele>105.18</ele>
        <time>2014-01-04T09:57:30Z</time>
      </trkpt>
      <trkpt lat="48.43145" lon="2.64791">
        <ele>103.24</ele>
        <time>2014-01-04T09:57:51Z</time>
      </trkpt>
      <trkpt lat="48.43127" lon="2.64803">
        <ele>103.57</ele>
        <time>2014-01-04T09:57:58Z</time>
      </trkpt>
      <trkpt lat="48.43111" lon="2.64821">
        <ele>103.17</ele>
        <time>2014-01-04T09:58:04Z</time>
      </trkpt>
      <trkpt lat="48.43103" lon="2.64829">
        <ele>103.41</ele>
        <time>2014-01-04T09:58:07Z</time>
      </trkpt>
      <trkpt lat="48.43096" lon="2.64866">
        <ele>104.03</ele>
        <time>2014-01-04T09:58:23Z</time>
      </trkpt>
      <trkpt lat="48.43093" lon="2.64868">
        <ele>112.15</ele>
        <time>2014-01-04T10:59:20Z</time>
      </trkpt>
      <trkpt lat="48.43053" lon="2.64904">
        <ele>113.65</ele>
        <time>2014-01-04T10:59:32Z</time>
      </trkpt>
      <trkpt lat="48.4305" lon="2.64909">
        <ele>113.74</ele>
        <time>2014-01-04T10:59:33Z</time>
      </trkpt>
      <trkpt lat="48.43022" lon="2.64941">
        <ele>114.21</ele>
        <time>2014-01-04T10:59:41Z</time>
      </trkpt>
      <trkpt lat="48.4302" lon="2.64943">
        <ele>114.27</ele>
        <time>2014-01-04T10:59:42Z</time>
      </trkpt>
      <trkpt lat="48.43013" lon="2.64993">
        <ele>115.61</ele>
        <time>2014-01-04T10:59:55Z</time>
      </trkpt>
      <trkpt lat="48.43009" lon="2.65005">
        <ele>117.5</ele>
        <time>2014-01-04T11:00:06Z</time>
      </trkpt>
      <trkpt lat="48.42994" lon="2.65041">
        <ele>118.91</ele>
        <time>2014-01-04T11:00:19Z</time>
      </trkpt>
      <trkpt lat="48.42957" lon="2.65057">
        <ele>121.5</ele>
        <time>2014-01-04T11:00:38Z</time>
      </trkpt>
      <trkpt lat="48.42921" lon="2.65092">
        <ele>125.14</ele>
        <time>2014-01-04T11:00:57Z</time>
      </trkpt>
      <trkpt lat="48.42916" lon="2.65107">
        <ele>125.96</ele>
        <time>2014-01-04T11:01:02Z</time>
      </trkpt>
      <trkpt lat="48.4291" lon="2.65162">
        <ele>128.03</ele>
        <time>2014-01-04T11:01:17Z</time>
      </trkpt>
      <trkpt lat="48.429" lon="2.6522">
        <ele>129.86</ele>
        <time>2014-01-04T11:01:36Z</time>
      </trkpt>
      <trkpt lat="48.42889" lon="2.65231">
        <ele>133.2</ele>
        <time>2014-01-04T11:01:46Z</time>
      </trkpt>
      <trkpt lat="48.42876" lon="2.65277">
        <ele>137.39</ele>
        <time>2014-01-04T11:02:20Z</time>
      </trkpt>
      <trkpt lat="48.4288" lon="2.65309">
        <ele>140.8</ele>
        <time>2014-01-04T11:02:56Z</time>
      </trkpt>
      <trkpt lat="48.4288" lon="2.65311">
        <ele>140.91</ele>
        <time>2014-01-04T11:02:57Z</time>
      </trkpt>
      <trkpt lat="48.42888" lon="2.65342">
        <ele>144.02</ele>
        <time>2014-01-04T11:03:20Z</time>
      </trkpt>
      <trkpt lat="48.42892" lon="2.65358">
        <ele>144.94</ele>
        <time>2014-01-04T11:03:31Z</time>
      </trkpt>
      <trkpt lat="48.42891" lon="2.65406">
        <ele>147.83</ele>
        <time>2014-01-04T11:03:49Z</time>
      </trkpt>
      <trkpt lat="48.42893" lon="2.65425">
        <ele>149.14</ele>
        <time>2014-01-04T11:03:56Z</time>
      </trkpt>
      <trkpt lat="48.42872" lon="2.65473">
        <ele>152.02</ele>
        <time>2014-01-04T11:04:15Z</time>
      </trkpt>
      <trkpt lat="48.4284" lon="2.65506">
        <ele>155.54</ele>
        <time>2014-01-04T11:04:51Z</time>
      </trkpt>
      <trkpt lat="48.4284" lon="2.6551">
        <ele>154.91</ele>
        <time>2014-01-04T11:06:50Z</time>
      </trkpt>
      <trkpt lat="48.42856" lon="2.65559">
        <ele>154.35</ele>
        <time>2014-01-04T11:07:03Z</time>
      </trkpt>
      <trkpt lat="48.42891" lon="2.65647">
        <ele>156.01</ele>
        <time>2014-01-04T11:07:26Z</time>
      </trkpt>
      <trkpt lat="48.42905" lon="2.65682">
        <ele>155.85</ele>
        <time>2014-01-04T11:07:43Z</time>
      </trkpt>
      <trkpt lat="48.42903" lon="2.65736">
        <ele>156.44</ele>
        <time>2014-01-04T11:08:00Z</time>
      </trkpt>
      <trkpt lat="48.42887" lon="2.65798">
        <ele>156.49</ele>
        <time>2014-01-04T11:08:17Z</time>
      </trkpt>
      <trkpt lat="48.42887" lon="2.65804">
        <ele>156.05</ele>
        <time>2014-01-04T11:08:19Z</time>
      </trkpt>
      <trkpt lat="48.42872" lon="2.65856">
        <ele>156.29</ele>
        <time>2014-01-04T11:08:33Z</time>
      </trkpt>
      <trkpt lat="48.42851" lon="2.65885">
        <ele>157.89</ele>
        <time>2014-01-04T11:08:45Z</time>
      </trkpt>
      <trkpt lat="48.42846" lon="2.65898">
        <ele>156.73</ele>
        <time>2014-01-04T11:08:49Z</time>
      </trkpt>
      <trkpt lat="48.42802" lon="2.65939">
        <ele>155.42</ele>
        <time>2014-01-04T11:09:06Z</time>
      </trkpt>
      <trkpt lat="48.42794" lon="2.65947">
        <ele>155.57</ele>
        <time>2014-01-04T11:09:12Z</time>
      </trkpt>
      <trkpt lat="48.42768" lon="2.65919">
        <ele>157.2</ele>
        <time>2014-01-04T11:09:24Z</time>
      </trkpt>
      <trkpt lat="48.42645" lon="2.65786">
        <ele>157.59</ele>
        <time>2014-01-04T11:09:59Z</time>
      </trkpt>
      <trkpt lat="48.42509" lon="2.65642">
        <ele>155.15</ele>
        <time>2014-01-04T11:10:31Z</time>
      </trkpt>
      <trkpt lat="48.42421" lon="2.6554">
        <ele>156.07</ele>
        <time>2014-01-04T11:10:54Z</time>
      </trkpt>
      <trkpt lat="48.42394" lon="2.65514">
        <ele>156.39</ele>
        <time>2014-01-04T11:11:01Z</time>
      </trkpt>
      <trkpt lat="48.42289" lon="2.65398">
        <ele>155.3</ele>
        <time>2014-01-04T11:11:28Z</time>
      </trkpt>
      <trkpt lat="48.42193" lon="2.65296">
        <ele>155.56</ele>
        <time>2014-01-04T11:11:50Z</time>
      </trkpt>
      <trkpt lat="48.42054" lon="2.65145">
        <ele>153.24</ele>
        <time>2014-01-04T11:12:20Z</time>
      </trkpt>
      <trkpt lat="48.41962" lon="2.65044">
        <ele>154.55</ele>
        <time>2014-01-04T11:12:43Z</time>
      </trkpt>
      <trkpt lat="48.41885" lon="2.6497">
        <ele>154.48</ele>
        <time>2014-01-04T11:13:00Z</time>
      </trkpt>
      <trkpt lat="48.4172" lon="2.64792">
        <ele>154.67</ele>
        <time>2014-01-04T11:13:40Z</time>
      </trkpt>
      <trkpt lat="48.41581" lon="2.64641">
        <ele>154.63</ele>
        <time>2014-01-04T11:14:14Z</time>
      </trkpt>
      <trkpt lat="48.41426" lon="2.64476">
        <ele>153.37</ele>
        <time>2014-01-04T11:14:48Z</time>
      </trkpt>
      <trkpt lat="48.41365" lon="2.64406">
        <ele>151.64</ele>
        <time>2014-01-04T11:15:06Z</time>
      </trkpt>
      <trkpt lat="48.41327" lon="2.64376">
        <ele>151.7</ele>
        <time>2014-01-04T11:15:18Z</time>
      </trkpt>
      <trkpt lat="48.41297" lon="2.64343">
        <ele>151.73</ele>
        <time>2014-01-04T11:15:25Z</time>
      </trkpt>
      <trkpt lat="48.41125" lon="2.64157">
        <ele>152.59</ele>
        <time>2014-01-04T11:16:02Z</time>
      </trkpt>
      <trkpt lat="48.40992" lon="2.64019">
        <ele>152.63</ele>
        <time>2014-01-04T11:16:33Z</time>
      </trkpt>
      <trkpt lat="48.40953" lon="2.63976">
        <ele>153.88</ele>
        <time>2014-01-04T11:16:43Z</time>
      </trkpt>
      <trkpt lat="48.40913" lon="2.63933">
        <ele>155.04</ele>
        <time>2014-01-04T11:16:55Z</time>
      </trkpt>
      <trkpt lat="48.40877" lon="2.63855">
        <ele>154.86</ele>
        <time>2014-01-04T11:17:12Z</time>
      </trkpt>
    </trkseg>
  </trk>
</gpx>